<?xml version="1.0" encoding="UTF-8" standalone="no" ?>
<gpx xmlns="http://www.topografix.com/GPX/1/1" xmlns:xsi="http://www.w3.org/2001/XMLSchema-instance" xsi:schemaLocation="http://www.topografix.com/GPX/1/1 http://www.topografix.com/GPX/1/1/gpx.xsd" version="1.1" creator="VisuGPX - https://www.visugpx.com">
  <metadata>
    <name>Lacs d\\\'Ardiden J3</name>
    <desc><![CDATA[Premier jour rando bivouac Cabane Lagües]]></desc>
  </metadata>
  <trk>
    <name><![CDATA[Lacs Ardiden jours2]]></name>
    <trkseg>
      <trkpt lat="42.86089" lon="-0.05774">
        <ele>2040</ele>
        <time>2015-08-11T08:20:33Z</time>
      </trkpt>
      <trkpt lat="42.86089" lon="-0.05774">
        <ele>2040</ele>
        <time>2015-08-11T08:20:34Z</time>
      </trkpt>
      <trkpt lat="42.8609" lon="-0.05761">
        <ele>2040</ele>
        <time>2015-08-11T08:21:54Z</time>
      </trkpt>
      <trkpt lat="42.86094" lon="-0.0575">
        <ele>2040</ele>
        <time>2015-08-11T08:22:04Z</time>
      </trkpt>
      <trkpt lat="42.86103" lon="-0.05747">
        <ele>2039</ele>
        <time>2015-08-11T08:22:22Z</time>
      </trkpt>
      <trkpt lat="42.86111" lon="-0.05739">
        <ele>2039</ele>
        <time>2015-08-11T08:22:36Z</time>
      </trkpt>
      <trkpt lat="42.8612" lon="-0.05739">
        <ele>2038</ele>
        <time>2015-08-11T08:22:53Z</time>
      </trkpt>
      <trkpt lat="42.86127" lon="-0.0573">
        <ele>2038</ele>
        <time>2015-08-11T08:23:19Z</time>
      </trkpt>
      <trkpt lat="42.86135" lon="-0.05722">
        <ele>2038</ele>
        <time>2015-08-11T08:23:28Z</time>
      </trkpt>
      <trkpt lat="42.86139" lon="-0.0571">
        <ele>2038</ele>
        <time>2015-08-11T08:23:40Z</time>
      </trkpt>
      <trkpt lat="42.86149" lon="-0.05706">
        <ele>2037</ele>
        <time>2015-08-11T08:24:08Z</time>
      </trkpt>
      <trkpt lat="42.86157" lon="-0.05699">
        <ele>2037</ele>
        <time>2015-08-11T08:24:46Z</time>
      </trkpt>
      <trkpt lat="42.86166" lon="-0.05698">
        <ele>2036</ele>
        <time>2015-08-11T08:24:56Z</time>
      </trkpt>
      <trkpt lat="42.86178" lon="-0.057">
        <ele>2032</ele>
        <time>2015-08-11T08:25:09Z</time>
      </trkpt>
      <trkpt lat="42.86184" lon="-0.05711">
        <ele>2032</ele>
        <time>2015-08-11T08:25:21Z</time>
      </trkpt>
      <trkpt lat="42.86193" lon="-0.05711">
        <ele>2031</ele>
        <time>2015-08-11T08:25:44Z</time>
      </trkpt>
      <trkpt lat="42.86202" lon="-0.0571">
        <ele>2031</ele>
        <time>2015-08-11T08:25:50Z</time>
      </trkpt>
      <trkpt lat="42.86211" lon="-0.05704">
        <ele>2031</ele>
        <time>2015-08-11T08:26:01Z</time>
      </trkpt>
      <trkpt lat="42.86219" lon="-0.05699">
        <ele>2031</ele>
        <time>2015-08-11T08:26:09Z</time>
      </trkpt>
      <trkpt lat="42.86228" lon="-0.05693">
        <ele>2030</ele>
        <time>2015-08-11T08:26:20Z</time>
      </trkpt>
      <trkpt lat="42.86236" lon="-0.05686">
        <ele>2029</ele>
        <time>2015-08-11T08:26:35Z</time>
      </trkpt>
      <trkpt lat="42.86245" lon="-0.05683">
        <ele>2029</ele>
        <time>2015-08-11T08:26:50Z</time>
      </trkpt>
      <trkpt lat="42.86254" lon="-0.05682">
        <ele>2025</ele>
        <time>2015-08-11T08:27:02Z</time>
      </trkpt>
      <trkpt lat="42.86263" lon="-0.05681">
        <ele>2025</ele>
        <time>2015-08-11T08:27:09Z</time>
      </trkpt>
      <trkpt lat="42.86272" lon="-0.05686">
        <ele>2024</ele>
        <time>2015-08-11T08:27:23Z</time>
      </trkpt>
      <trkpt lat="42.86281" lon="-0.05684">
        <ele>2023</ele>
        <time>2015-08-11T08:27:40Z</time>
      </trkpt>
      <trkpt lat="42.86289" lon="-0.05677">
        <ele>2022</ele>
        <time>2015-08-11T08:28:01Z</time>
      </trkpt>
      <trkpt lat="42.86298" lon="-0.05672">
        <ele>2021</ele>
        <time>2015-08-11T08:28:10Z</time>
      </trkpt>
      <trkpt lat="42.86307" lon="-0.05673">
        <ele>2020</ele>
        <time>2015-08-11T08:28:27Z</time>
      </trkpt>
      <trkpt lat="42.86316" lon="-0.05672">
        <ele>2018</ele>
        <time>2015-08-11T08:28:49Z</time>
      </trkpt>
      <trkpt lat="42.86325" lon="-0.05676">
        <ele>2017</ele>
        <time>2015-08-11T08:29:04Z</time>
      </trkpt>
      <trkpt lat="42.86334" lon="-0.05679">
        <ele>2012</ele>
        <time>2015-08-11T08:29:15Z</time>
      </trkpt>
      <trkpt lat="42.86343" lon="-0.0568">
        <ele>2011</ele>
        <time>2015-08-11T08:29:28Z</time>
      </trkpt>
      <trkpt lat="42.8635" lon="-0.05688">
        <ele>2010</ele>
        <time>2015-08-11T08:29:50Z</time>
      </trkpt>
      <trkpt lat="42.86355" lon="-0.05698">
        <ele>2009</ele>
        <time>2015-08-11T08:30:20Z</time>
      </trkpt>
      <trkpt lat="42.86364" lon="-0.05704">
        <ele>2008</ele>
        <time>2015-08-11T08:31:06Z</time>
      </trkpt>
      <trkpt lat="42.86372" lon="-0.05708">
        <ele>2007</ele>
        <time>2015-08-11T08:31:23Z</time>
      </trkpt>
      <trkpt lat="42.8638" lon="-0.05716">
        <ele>2006</ele>
        <time>2015-08-11T08:32:01Z</time>
      </trkpt>
      <trkpt lat="42.86388" lon="-0.05721">
        <ele>2005</ele>
        <time>2015-08-11T08:32:17Z</time>
      </trkpt>
      <trkpt lat="42.86397" lon="-0.05726">
        <ele>2003</ele>
        <time>2015-08-11T08:32:38Z</time>
      </trkpt>
      <trkpt lat="42.86406" lon="-0.0573">
        <ele>2001</ele>
        <time>2015-08-11T08:33:00Z</time>
      </trkpt>
      <trkpt lat="42.86415" lon="-0.05733">
        <ele>1999</ele>
        <time>2015-08-11T08:33:33Z</time>
      </trkpt>
      <trkpt lat="42.86425" lon="-0.05736">
        <ele>1989</ele>
        <time>2015-08-11T08:34:18Z</time>
      </trkpt>
      <trkpt lat="42.86433" lon="-0.0574">
        <ele>1989</ele>
        <time>2015-08-11T08:35:12Z</time>
      </trkpt>
      <trkpt lat="42.86442" lon="-0.05747">
        <ele>1987</ele>
        <time>2015-08-11T08:35:49Z</time>
      </trkpt>
      <trkpt lat="42.86451" lon="-0.05748">
        <ele>1985</ele>
        <time>2015-08-11T08:36:15Z</time>
      </trkpt>
      <trkpt lat="42.8646" lon="-0.05753">
        <ele>1982</ele>
        <time>2015-08-11T08:36:34Z</time>
      </trkpt>
      <trkpt lat="42.86469" lon="-0.05752">
        <ele>1980</ele>
        <time>2015-08-11T08:36:50Z</time>
      </trkpt>
      <trkpt lat="42.86479" lon="-0.05755">
        <ele>1978</ele>
        <time>2015-08-11T08:38:16Z</time>
      </trkpt>
      <trkpt lat="42.86488" lon="-0.05761">
        <ele>1976</ele>
        <time>2015-08-11T08:38:27Z</time>
      </trkpt>
      <trkpt lat="42.86496" lon="-0.05765">
        <ele>1975</ele>
        <time>2015-08-11T08:38:35Z</time>
      </trkpt>
      <trkpt lat="42.86503" lon="-0.05774">
        <ele>1963</ele>
        <time>2015-08-11T08:38:51Z</time>
      </trkpt>
      <trkpt lat="42.86512" lon="-0.05778">
        <ele>1962</ele>
        <time>2015-08-11T08:39:11Z</time>
      </trkpt>
      <trkpt lat="42.86521" lon="-0.05775">
        <ele>1961</ele>
        <time>2015-08-11T08:39:21Z</time>
      </trkpt>
      <trkpt lat="42.86531" lon="-0.05776">
        <ele>1959</ele>
        <time>2015-08-11T08:39:42Z</time>
      </trkpt>
      <trkpt lat="42.8654" lon="-0.05775">
        <ele>1958</ele>
        <time>2015-08-11T08:39:58Z</time>
      </trkpt>
      <trkpt lat="42.8655" lon="-0.05774">
        <ele>1956</ele>
        <time>2015-08-11T08:40:10Z</time>
      </trkpt>
      <trkpt lat="42.86559" lon="-0.05772">
        <ele>1955</ele>
        <time>2015-08-11T08:40:23Z</time>
      </trkpt>
      <trkpt lat="42.86567" lon="-0.05774">
        <ele>1954</ele>
        <time>2015-08-11T08:40:32Z</time>
      </trkpt>
      <trkpt lat="42.86576" lon="-0.05771">
        <ele>1953</ele>
        <time>2015-08-11T08:41:16Z</time>
      </trkpt>
      <trkpt lat="42.86584" lon="-0.05764">
        <ele>1942</ele>
        <time>2015-08-11T08:41:34Z</time>
      </trkpt>
      <trkpt lat="42.86593" lon="-0.0576">
        <ele>1942</ele>
        <time>2015-08-11T08:41:46Z</time>
      </trkpt>
      <trkpt lat="42.86603" lon="-0.05758">
        <ele>1940</ele>
        <time>2015-08-11T08:42:03Z</time>
      </trkpt>
      <trkpt lat="42.8661" lon="-0.0575">
        <ele>1939</ele>
        <time>2015-08-11T08:42:19Z</time>
      </trkpt>
      <trkpt lat="42.86619" lon="-0.05745">
        <ele>1941</ele>
        <time>2015-08-11T08:42:41Z</time>
      </trkpt>
      <trkpt lat="42.86624" lon="-0.05734">
        <ele>1940</ele>
        <time>2015-08-11T08:43:03Z</time>
      </trkpt>
      <trkpt lat="42.86628" lon="-0.05723">
        <ele>1940</ele>
        <time>2015-08-11T08:43:20Z</time>
      </trkpt>
      <trkpt lat="42.86636" lon="-0.05716">
        <ele>1940</ele>
        <time>2015-08-11T08:43:34Z</time>
      </trkpt>
      <trkpt lat="42.86644" lon="-0.05713">
        <ele>1939</ele>
        <time>2015-08-11T08:44:15Z</time>
      </trkpt>
      <trkpt lat="42.86646" lon="-0.057">
        <ele>1939</ele>
        <time>2015-08-11T08:44:43Z</time>
      </trkpt>
      <trkpt lat="42.86649" lon="-0.05688">
        <ele>1939</ele>
        <time>2015-08-11T08:45:30Z</time>
      </trkpt>
      <trkpt lat="42.86657" lon="-0.05682">
        <ele>1937</ele>
        <time>2015-08-11T08:46:38Z</time>
      </trkpt>
      <trkpt lat="42.86666" lon="-0.05676">
        <ele>1936</ele>
        <time>2015-08-11T08:47:15Z</time>
      </trkpt>
      <trkpt lat="42.86675" lon="-0.05674">
        <ele>1924</ele>
        <time>2015-08-11T08:47:43Z</time>
      </trkpt>
      <trkpt lat="42.86681" lon="-0.05665">
        <ele>1925</ele>
        <time>2015-08-11T08:48:07Z</time>
      </trkpt>
      <trkpt lat="42.86689" lon="-0.0566">
        <ele>1921</ele>
        <time>2015-08-11T08:48:25Z</time>
      </trkpt>
      <trkpt lat="42.86698" lon="-0.05658">
        <ele>1918</ele>
        <time>2015-08-11T08:48:50Z</time>
      </trkpt>
      <trkpt lat="42.86707" lon="-0.05654">
        <ele>1915</ele>
        <time>2015-08-11T08:50:45Z</time>
      </trkpt>
      <trkpt lat="42.86716" lon="-0.05649">
        <ele>1912</ele>
        <time>2015-08-11T08:51:07Z</time>
      </trkpt>
      <trkpt lat="42.86725" lon="-0.05648">
        <ele>1909</ele>
        <time>2015-08-11T08:51:28Z</time>
      </trkpt>
      <trkpt lat="42.86731" lon="-0.05658">
        <ele>1906</ele>
        <time>2015-08-11T08:52:04Z</time>
      </trkpt>
      <trkpt lat="42.86735" lon="-0.05669">
        <ele>1900</ele>
        <time>2015-08-11T08:52:24Z</time>
      </trkpt>
      <trkpt lat="42.86742" lon="-0.05677">
        <ele>1899</ele>
        <time>2015-08-11T08:52:48Z</time>
      </trkpt>
      <trkpt lat="42.86751" lon="-0.05683">
        <ele>1884</ele>
        <time>2015-08-11T08:53:46Z</time>
      </trkpt>
      <trkpt lat="42.8676" lon="-0.05687">
        <ele>1881</ele>
        <time>2015-08-11T08:54:06Z</time>
      </trkpt>
      <trkpt lat="42.86764" lon="-0.05698">
        <ele>1878</ele>
        <time>2015-08-11T08:54:36Z</time>
      </trkpt>
      <trkpt lat="42.86766" lon="-0.0571">
        <ele>1877</ele>
        <time>2015-08-11T08:55:40Z</time>
      </trkpt>
      <trkpt lat="42.8677" lon="-0.05721">
        <ele>1876</ele>
        <time>2015-08-11T08:56:31Z</time>
      </trkpt>
      <trkpt lat="42.86779" lon="-0.05723">
        <ele>1874</ele>
        <time>2015-08-11T08:57:20Z</time>
      </trkpt>
      <trkpt lat="42.86789" lon="-0.05724">
        <ele>1873</ele>
        <time>2015-08-11T08:57:46Z</time>
      </trkpt>
      <trkpt lat="42.86798" lon="-0.05729">
        <ele>1871</ele>
        <time>2015-08-11T08:58:07Z</time>
      </trkpt>
      <trkpt lat="42.8681" lon="-0.05732">
        <ele>1868</ele>
        <time>2015-08-11T08:58:48Z</time>
      </trkpt>
      <trkpt lat="42.86823" lon="-0.05738">
        <ele>1864</ele>
        <time>2015-08-11T08:59:10Z</time>
      </trkpt>
      <trkpt lat="42.86831" lon="-0.05745">
        <ele>1860</ele>
        <time>2015-08-11T08:59:20Z</time>
      </trkpt>
      <trkpt lat="42.86841" lon="-0.05753">
        <ele>1852</ele>
        <time>2015-08-11T08:59:28Z</time>
      </trkpt>
      <trkpt lat="42.86848" lon="-0.05762">
        <ele>1849</ele>
        <time>2015-08-11T08:59:40Z</time>
      </trkpt>
      <trkpt lat="42.86854" lon="-0.05773">
        <ele>1847</ele>
        <time>2015-08-11T08:59:51Z</time>
      </trkpt>
      <trkpt lat="42.86863" lon="-0.05776">
        <ele>1845</ele>
        <time>2015-08-11T09:00:00Z</time>
      </trkpt>
      <trkpt lat="42.86873" lon="-0.05782">
        <ele>1844</ele>
        <time>2015-08-11T09:00:08Z</time>
      </trkpt>
      <trkpt lat="42.8688" lon="-0.05788">
        <ele>1843</ele>
        <time>2015-08-11T09:00:15Z</time>
      </trkpt>
      <trkpt lat="42.8689" lon="-0.05788">
        <ele>1842</ele>
        <time>2015-08-11T09:00:59Z</time>
      </trkpt>
      <trkpt lat="42.869" lon="-0.0579">
        <ele>1841</ele>
        <time>2015-08-11T09:01:17Z</time>
      </trkpt>
      <trkpt lat="42.86906" lon="-0.05799">
        <ele>1840</ele>
        <time>2015-08-11T09:01:31Z</time>
      </trkpt>
      <trkpt lat="42.86913" lon="-0.05809">
        <ele>1839</ele>
        <time>2015-08-11T09:01:58Z</time>
      </trkpt>
      <trkpt lat="42.86919" lon="-0.05817">
        <ele>1828</ele>
        <time>2015-08-11T09:02:11Z</time>
      </trkpt>
      <trkpt lat="42.86927" lon="-0.05824">
        <ele>1828</ele>
        <time>2015-08-11T09:02:23Z</time>
      </trkpt>
      <trkpt lat="42.86935" lon="-0.05831">
        <ele>1827</ele>
        <time>2015-08-11T09:02:30Z</time>
      </trkpt>
      <trkpt lat="42.86944" lon="-0.05834">
        <ele>1830</ele>
        <time>2015-08-11T09:02:48Z</time>
      </trkpt>
      <trkpt lat="42.86945" lon="-0.05846">
        <ele>1830</ele>
        <time>2015-08-11T09:03:20Z</time>
      </trkpt>
      <trkpt lat="42.8694" lon="-0.05857">
        <ele>1831</ele>
        <time>2015-08-11T09:04:01Z</time>
      </trkpt>
      <trkpt lat="42.86949" lon="-0.05863">
        <ele>1831</ele>
        <time>2015-08-11T09:05:04Z</time>
      </trkpt>
      <trkpt lat="42.86957" lon="-0.0587">
        <ele>1831</ele>
        <time>2015-08-11T09:05:17Z</time>
      </trkpt>
      <trkpt lat="42.86966" lon="-0.05872">
        <ele>1830</ele>
        <time>2015-08-11T09:05:35Z</time>
      </trkpt>
      <trkpt lat="42.86975" lon="-0.05876">
        <ele>1830</ele>
        <time>2015-08-11T09:05:46Z</time>
      </trkpt>
      <trkpt lat="42.8698" lon="-0.05865">
        <ele>1828</ele>
        <time>2015-08-11T09:06:00Z</time>
      </trkpt>
      <trkpt lat="42.86987" lon="-0.05874">
        <ele>1828</ele>
        <time>2015-08-11T09:16:22Z</time>
      </trkpt>
      <trkpt lat="42.86996" lon="-0.05878">
        <ele>1829</ele>
        <time>2015-08-11T09:18:23Z</time>
      </trkpt>
      <trkpt lat="42.87005" lon="-0.05877">
        <ele>1820</ele>
        <time>2015-08-11T09:19:15Z</time>
      </trkpt>
      <trkpt lat="42.87013" lon="-0.05872">
        <ele>1819</ele>
        <time>2015-08-11T09:19:30Z</time>
      </trkpt>
      <trkpt lat="42.87023" lon="-0.05869">
        <ele>1819</ele>
        <time>2015-08-11T09:19:44Z</time>
      </trkpt>
      <trkpt lat="42.87028" lon="-0.05859">
        <ele>1817</ele>
        <time>2015-08-11T09:19:58Z</time>
      </trkpt>
      <trkpt lat="42.87034" lon="-0.05849">
        <ele>1816</ele>
        <time>2015-08-11T09:20:40Z</time>
      </trkpt>
      <trkpt lat="42.87043" lon="-0.05846">
        <ele>1815</ele>
        <time>2015-08-11T09:21:40Z</time>
      </trkpt>
      <trkpt lat="42.87051" lon="-0.0584">
        <ele>1813</ele>
        <time>2015-08-11T09:22:04Z</time>
      </trkpt>
      <trkpt lat="42.8706" lon="-0.05834">
        <ele>1811</ele>
        <time>2015-08-11T09:22:23Z</time>
      </trkpt>
      <trkpt lat="42.87067" lon="-0.05824">
        <ele>1799</ele>
        <time>2015-08-11T09:22:35Z</time>
      </trkpt>
      <trkpt lat="42.87076" lon="-0.05819">
        <ele>1799</ele>
        <time>2015-08-11T09:22:44Z</time>
      </trkpt>
      <trkpt lat="42.87085" lon="-0.05817">
        <ele>1792</ele>
        <time>2015-08-11T09:22:54Z</time>
      </trkpt>
      <trkpt lat="42.87094" lon="-0.05815">
        <ele>1790</ele>
        <time>2015-08-11T09:23:17Z</time>
      </trkpt>
      <trkpt lat="42.87103" lon="-0.05813">
        <ele>1789</ele>
        <time>2015-08-11T09:23:38Z</time>
      </trkpt>
      <trkpt lat="42.87113" lon="-0.05811">
        <ele>1787</ele>
        <time>2015-08-11T09:23:51Z</time>
      </trkpt>
      <trkpt lat="42.87122" lon="-0.05812">
        <ele>1786</ele>
        <time>2015-08-11T09:24:04Z</time>
      </trkpt>
      <trkpt lat="42.87126" lon="-0.05801">
        <ele>1784</ele>
        <time>2015-08-11T09:24:47Z</time>
      </trkpt>
      <trkpt lat="42.87133" lon="-0.05793">
        <ele>1782</ele>
        <time>2015-08-11T09:25:14Z</time>
      </trkpt>
      <trkpt lat="42.87142" lon="-0.05788">
        <ele>1781</ele>
        <time>2015-08-11T09:26:08Z</time>
      </trkpt>
      <trkpt lat="42.87146" lon="-0.05777">
        <ele>1778</ele>
        <time>2015-08-11T09:26:32Z</time>
      </trkpt>
      <trkpt lat="42.87155" lon="-0.05773">
        <ele>1776</ele>
        <time>2015-08-11T09:26:50Z</time>
      </trkpt>
      <trkpt lat="42.87163" lon="-0.05766">
        <ele>1772</ele>
        <time>2015-08-11T09:27:11Z</time>
      </trkpt>
      <trkpt lat="42.87172" lon="-0.05762">
        <ele>1765</ele>
        <time>2015-08-11T09:27:27Z</time>
      </trkpt>
      <trkpt lat="42.87181" lon="-0.05761">
        <ele>1765</ele>
        <time>2015-08-11T09:27:39Z</time>
      </trkpt>
      <trkpt lat="42.8719" lon="-0.05758">
        <ele>1765</ele>
        <time>2015-08-11T09:27:53Z</time>
      </trkpt>
      <trkpt lat="42.872" lon="-0.0576">
        <ele>1765</ele>
        <time>2015-08-11T09:28:04Z</time>
      </trkpt>
      <trkpt lat="42.87209" lon="-0.05757">
        <ele>1764</ele>
        <time>2015-08-11T09:28:16Z</time>
      </trkpt>
      <trkpt lat="42.87218" lon="-0.05751">
        <ele>1762</ele>
        <time>2015-08-11T09:28:26Z</time>
      </trkpt>
      <trkpt lat="42.87226" lon="-0.05744">
        <ele>1746</ele>
        <time>2015-08-11T09:28:35Z</time>
      </trkpt>
      <trkpt lat="42.87233" lon="-0.05736">
        <ele>1745</ele>
        <time>2015-08-11T09:28:44Z</time>
      </trkpt>
      <trkpt lat="42.87241" lon="-0.05729">
        <ele>1744</ele>
        <time>2015-08-11T09:28:53Z</time>
      </trkpt>
      <trkpt lat="42.8725" lon="-0.05724">
        <ele>1743</ele>
        <time>2015-08-11T09:29:04Z</time>
      </trkpt>
      <trkpt lat="42.87259" lon="-0.05727">
        <ele>1738</ele>
        <time>2015-08-11T09:29:14Z</time>
      </trkpt>
      <trkpt lat="42.87268" lon="-0.0573">
        <ele>1738</ele>
        <time>2015-08-11T09:29:23Z</time>
      </trkpt>
      <trkpt lat="42.87277" lon="-0.05729">
        <ele>1736</ele>
        <time>2015-08-11T09:29:38Z</time>
      </trkpt>
      <trkpt lat="42.87287" lon="-0.05728">
        <ele>1736</ele>
        <time>2015-08-11T09:29:51Z</time>
      </trkpt>
      <trkpt lat="42.87295" lon="-0.05732">
        <ele>1736</ele>
        <time>2015-08-11T09:29:59Z</time>
      </trkpt>
      <trkpt lat="42.87304" lon="-0.05727">
        <ele>1736</ele>
        <time>2015-08-11T09:30:11Z</time>
      </trkpt>
      <trkpt lat="42.87313" lon="-0.05721">
        <ele>1735</ele>
        <time>2015-08-11T09:30:25Z</time>
      </trkpt>
      <trkpt lat="42.87321" lon="-0.05714">
        <ele>1733</ele>
        <time>2015-08-11T09:30:37Z</time>
      </trkpt>
      <trkpt lat="42.87327" lon="-0.05705">
        <ele>1730</ele>
        <time>2015-08-11T09:30:48Z</time>
      </trkpt>
      <trkpt lat="42.87336" lon="-0.057">
        <ele>1733</ele>
        <time>2015-08-11T09:31:00Z</time>
      </trkpt>
      <trkpt lat="42.87344" lon="-0.05693">
        <ele>1731</ele>
        <time>2015-08-11T09:31:06Z</time>
      </trkpt>
      <trkpt lat="42.8735" lon="-0.05683">
        <ele>1728</ele>
        <time>2015-08-11T09:31:16Z</time>
      </trkpt>
      <trkpt lat="42.87358" lon="-0.05678">
        <ele>1730</ele>
        <time>2015-08-11T09:31:25Z</time>
      </trkpt>
      <trkpt lat="42.87367" lon="-0.05675">
        <ele>1732</ele>
        <time>2015-08-11T09:31:33Z</time>
      </trkpt>
      <trkpt lat="42.87376" lon="-0.05671">
        <ele>1733</ele>
        <time>2015-08-11T09:31:41Z</time>
      </trkpt>
      <trkpt lat="42.87386" lon="-0.05668">
        <ele>1734</ele>
        <time>2015-08-11T09:31:49Z</time>
      </trkpt>
      <trkpt lat="42.87395" lon="-0.05666">
        <ele>1709</ele>
        <time>2015-08-11T09:31:58Z</time>
      </trkpt>
      <trkpt lat="42.87405" lon="-0.05663">
        <ele>1714</ele>
        <time>2015-08-11T09:32:10Z</time>
      </trkpt>
      <trkpt lat="42.87415" lon="-0.05661">
        <ele>1720</ele>
        <time>2015-08-11T09:32:21Z</time>
      </trkpt>
      <trkpt lat="42.87424" lon="-0.05662">
        <ele>1724</ele>
        <time>2015-08-11T09:32:30Z</time>
      </trkpt>
      <trkpt lat="42.87432" lon="-0.05654">
        <ele>1722</ele>
        <time>2015-08-11T09:32:53Z</time>
      </trkpt>
      <trkpt lat="42.8744" lon="-0.05648">
        <ele>1720</ele>
        <time>2015-08-11T09:33:03Z</time>
      </trkpt>
      <trkpt lat="42.87442" lon="-0.05636">
        <ele>1717</ele>
        <time>2015-08-11T09:33:23Z</time>
      </trkpt>
      <trkpt lat="42.87446" lon="-0.05624">
        <ele>1714</ele>
        <time>2015-08-11T09:33:38Z</time>
      </trkpt>
      <trkpt lat="42.87455" lon="-0.05619">
        <ele>1714</ele>
        <time>2015-08-11T09:33:45Z</time>
      </trkpt>
      <trkpt lat="42.87463" lon="-0.05612">
        <ele>1714</ele>
        <time>2015-08-11T09:33:54Z</time>
      </trkpt>
      <trkpt lat="42.87468" lon="-0.05601">
        <ele>1713</ele>
        <time>2015-08-11T09:34:04Z</time>
      </trkpt>
      <trkpt lat="42.87467" lon="-0.05589">
        <ele>1710</ele>
        <time>2015-08-11T09:34:36Z</time>
      </trkpt>
      <trkpt lat="42.8747" lon="-0.05576">
        <ele>1681</ele>
        <time>2015-08-11T09:34:54Z</time>
      </trkpt>
      <trkpt lat="42.87477" lon="-0.05568">
        <ele>1682</ele>
        <time>2015-08-11T09:35:09Z</time>
      </trkpt>
      <trkpt lat="42.87485" lon="-0.05561">
        <ele>1682</ele>
        <time>2015-08-11T09:35:24Z</time>
      </trkpt>
      <trkpt lat="42.8749" lon="-0.05551">
        <ele>1679</ele>
        <time>2015-08-11T09:35:39Z</time>
      </trkpt>
      <trkpt lat="42.87494" lon="-0.05539">
        <ele>1674</ele>
        <time>2015-08-11T09:35:54Z</time>
      </trkpt>
      <trkpt lat="42.87496" lon="-0.05527">
        <ele>1670</ele>
        <time>2015-08-11T09:36:15Z</time>
      </trkpt>
      <trkpt lat="42.87499" lon="-0.05515">
        <ele>1667</ele>
        <time>2015-08-11T09:36:30Z</time>
      </trkpt>
      <trkpt lat="42.8749" lon="-0.05514">
        <ele>1666</ele>
        <time>2015-08-11T09:36:47Z</time>
      </trkpt>
      <trkpt lat="42.87488" lon="-0.05502">
        <ele>1664</ele>
        <time>2015-08-11T09:37:05Z</time>
      </trkpt>
      <trkpt lat="42.87494" lon="-0.0549">
        <ele>1650</ele>
        <time>2015-08-11T09:37:16Z</time>
      </trkpt>
      <trkpt lat="42.87493" lon="-0.05477">
        <ele>1641</ele>
        <time>2015-08-11T09:37:31Z</time>
      </trkpt>
      <trkpt lat="42.87484" lon="-0.05474">
        <ele>1637</ele>
        <time>2015-08-11T09:37:42Z</time>
      </trkpt>
      <trkpt lat="42.87476" lon="-0.05467">
        <ele>1633</ele>
        <time>2015-08-11T09:37:54Z</time>
      </trkpt>
      <trkpt lat="42.87466" lon="-0.05466">
        <ele>1630</ele>
        <time>2015-08-11T09:38:13Z</time>
      </trkpt>
      <trkpt lat="42.87457" lon="-0.05462">
        <ele>1628</ele>
        <time>2015-08-11T09:38:25Z</time>
      </trkpt>
      <trkpt lat="42.87462" lon="-0.05451">
        <ele>1626</ele>
        <time>2015-08-11T09:38:43Z</time>
      </trkpt>
      <trkpt lat="42.87465" lon="-0.05439">
        <ele>1624</ele>
        <time>2015-08-11T09:38:59Z</time>
      </trkpt>
      <trkpt lat="42.87473" lon="-0.05433">
        <ele>1624</ele>
        <time>2015-08-11T09:41:16Z</time>
      </trkpt>
      <trkpt lat="42.87477" lon="-0.0542">
        <ele>1623</ele>
        <time>2015-08-11T09:44:21Z</time>
      </trkpt>
      <trkpt lat="42.87482" lon="-0.05409">
        <ele>1605</ele>
        <time>2015-08-11T09:44:35Z</time>
      </trkpt>
      <trkpt lat="42.87483" lon="-0.05396">
        <ele>1601</ele>
        <time>2015-08-11T09:45:03Z</time>
      </trkpt>
      <trkpt lat="42.87489" lon="-0.05387">
        <ele>1599</ele>
        <time>2015-08-11T09:45:18Z</time>
      </trkpt>
      <trkpt lat="42.87491" lon="-0.05375">
        <ele>1595</ele>
        <time>2015-08-11T09:45:31Z</time>
      </trkpt>
      <trkpt lat="42.87498" lon="-0.05367">
        <ele>1593</ele>
        <time>2015-08-11T09:45:51Z</time>
      </trkpt>
      <trkpt lat="42.87503" lon="-0.05356">
        <ele>1604</ele>
        <time>2015-08-11T09:46:10Z</time>
      </trkpt>
      <trkpt lat="42.87509" lon="-0.05345">
        <ele>1599</ele>
        <time>2015-08-11T09:46:33Z</time>
      </trkpt>
      <trkpt lat="42.87512" lon="-0.05333">
        <ele>1583</ele>
        <time>2015-08-11T09:46:45Z</time>
      </trkpt>
      <trkpt lat="42.8752" lon="-0.05327">
        <ele>1583</ele>
        <time>2015-08-11T09:46:56Z</time>
      </trkpt>
      <trkpt lat="42.87529" lon="-0.0532">
        <ele>1584</ele>
        <time>2015-08-11T09:47:08Z</time>
      </trkpt>
      <trkpt lat="42.8753" lon="-0.05307">
        <ele>1582</ele>
        <time>2015-08-11T09:47:23Z</time>
      </trkpt>
      <trkpt lat="42.87533" lon="-0.05295">
        <ele>1580</ele>
        <time>2015-08-11T09:47:33Z</time>
      </trkpt>
      <trkpt lat="42.87538" lon="-0.05285">
        <ele>1579</ele>
        <time>2015-08-11T09:47:45Z</time>
      </trkpt>
      <trkpt lat="42.87543" lon="-0.05274">
        <ele>1577</ele>
        <time>2015-08-11T09:47:55Z</time>
      </trkpt>
      <trkpt lat="42.87549" lon="-0.05265">
        <ele>1577</ele>
        <time>2015-08-11T09:48:06Z</time>
      </trkpt>
      <trkpt lat="42.87554" lon="-0.05252">
        <ele>1576</ele>
        <time>2015-08-11T09:48:18Z</time>
      </trkpt>
      <trkpt lat="42.87557" lon="-0.0524">
        <ele>1559</ele>
        <time>2015-08-11T09:48:27Z</time>
      </trkpt>
      <trkpt lat="42.87564" lon="-0.05229">
        <ele>1559</ele>
        <time>2015-08-11T09:48:36Z</time>
      </trkpt>
      <trkpt lat="42.87567" lon="-0.05217">
        <ele>1557</ele>
        <time>2015-08-11T09:48:46Z</time>
      </trkpt>
      <trkpt lat="42.87571" lon="-0.05205">
        <ele>1556</ele>
        <time>2015-08-11T09:48:56Z</time>
      </trkpt>
      <trkpt lat="42.87579" lon="-0.05196">
        <ele>1554</ele>
        <time>2015-08-11T09:49:07Z</time>
      </trkpt>
      <trkpt lat="42.87586" lon="-0.05187">
        <ele>1569</ele>
        <time>2015-08-11T09:49:46Z</time>
      </trkpt>
      <trkpt lat="42.87594" lon="-0.05177">
        <ele>1566</ele>
        <time>2015-08-11T09:49:52Z</time>
      </trkpt>
      <trkpt lat="42.87602" lon="-0.05171">
        <ele>1569</ele>
        <time>2015-08-11T09:49:57Z</time>
      </trkpt>
      <trkpt lat="42.87608" lon="-0.05161">
        <ele>1557</ele>
        <time>2015-08-11T09:50:06Z</time>
      </trkpt>
      <trkpt lat="42.87613" lon="-0.0515">
        <ele>1557</ele>
        <time>2015-08-11T09:50:13Z</time>
      </trkpt>
      <trkpt lat="42.87619" lon="-0.0514">
        <ele>1557</ele>
        <time>2015-08-11T09:50:26Z</time>
      </trkpt>
      <trkpt lat="42.87626" lon="-0.05132">
        <ele>1557</ele>
        <time>2015-08-11T09:50:34Z</time>
      </trkpt>
      <trkpt lat="42.87635" lon="-0.05125">
        <ele>1558</ele>
        <time>2015-08-11T09:50:45Z</time>
      </trkpt>
      <trkpt lat="42.87642" lon="-0.05116">
        <ele>1557</ele>
        <time>2015-08-11T09:50:52Z</time>
      </trkpt>
      <trkpt lat="42.8764" lon="-0.05103">
        <ele>1555</ele>
        <time>2015-08-11T09:50:59Z</time>
      </trkpt>
      <trkpt lat="42.87645" lon="-0.05093">
        <ele>1555</ele>
        <time>2015-08-11T09:51:15Z</time>
      </trkpt>
      <trkpt lat="42.87649" lon="-0.05082">
        <ele>1542</ele>
        <time>2015-08-11T09:51:37Z</time>
      </trkpt>
      <trkpt lat="42.87655" lon="-0.05071">
        <ele>1542</ele>
        <time>2015-08-11T09:51:46Z</time>
      </trkpt>
      <trkpt lat="42.87661" lon="-0.0506">
        <ele>1539</ele>
        <time>2015-08-11T09:51:55Z</time>
      </trkpt>
      <trkpt lat="42.87659" lon="-0.05048">
        <ele>1535</ele>
        <time>2015-08-11T09:52:13Z</time>
      </trkpt>
      <trkpt lat="42.87662" lon="-0.05034">
        <ele>1532</ele>
        <time>2015-08-11T09:52:26Z</time>
      </trkpt>
      <trkpt lat="42.87665" lon="-0.05021">
        <ele>1530</ele>
        <time>2015-08-11T09:52:37Z</time>
      </trkpt>
      <trkpt lat="42.87667" lon="-0.05008">
        <ele>1528</ele>
        <time>2015-08-11T09:52:49Z</time>
      </trkpt>
      <trkpt lat="42.87668" lon="-0.04995">
        <ele>1528</ele>
        <time>2015-08-11T09:53:04Z</time>
      </trkpt>
      <trkpt lat="42.87671" lon="-0.04982">
        <ele>1528</ele>
        <time>2015-08-11T09:53:22Z</time>
      </trkpt>
      <trkpt lat="42.87674" lon="-0.0497">
        <ele>1527</ele>
        <time>2015-08-11T09:53:28Z</time>
      </trkpt>
      <trkpt lat="42.87673" lon="-0.04956">
        <ele>1523</ele>
        <time>2015-08-11T09:53:37Z</time>
      </trkpt>
      <trkpt lat="42.8768" lon="-0.04945">
        <ele>1520</ele>
        <time>2015-08-11T09:53:46Z</time>
      </trkpt>
      <trkpt lat="42.87683" lon="-0.04933">
        <ele>1516</ele>
        <time>2015-08-11T09:53:55Z</time>
      </trkpt>
      <trkpt lat="42.87688" lon="-0.04922">
        <ele>1515</ele>
        <time>2015-08-11T09:54:05Z</time>
      </trkpt>
      <trkpt lat="42.87695" lon="-0.04912">
        <ele>1496</ele>
        <time>2015-08-11T09:54:14Z</time>
      </trkpt>
      <trkpt lat="42.87695" lon="-0.04898">
        <ele>1495</ele>
        <time>2015-08-11T09:54:20Z</time>
      </trkpt>
      <trkpt lat="42.87702" lon="-0.04884">
        <ele>1494</ele>
        <time>2015-08-11T09:54:23Z</time>
      </trkpt>
      <trkpt lat="42.87707" lon="-0.04872">
        <ele>1493</ele>
        <time>2015-08-11T09:54:26Z</time>
      </trkpt>
      <trkpt lat="42.87715" lon="-0.04865">
        <ele>1493</ele>
        <time>2015-08-11T09:54:49Z</time>
      </trkpt>
      <trkpt lat="42.87721" lon="-0.04856">
        <ele>1493</ele>
        <time>2015-08-11T09:54:58Z</time>
      </trkpt>
      <trkpt lat="42.87728" lon="-0.04846">
        <ele>1492</ele>
        <time>2015-08-11T09:55:07Z</time>
      </trkpt>
      <trkpt lat="42.87729" lon="-0.04833">
        <ele>1472</ele>
        <time>2015-08-11T09:55:25Z</time>
      </trkpt>
      <trkpt lat="42.87734" lon="-0.0482">
        <ele>1471</ele>
        <time>2015-08-11T09:55:42Z</time>
      </trkpt>
      <trkpt lat="42.87736" lon="-0.04808">
        <ele>1466</ele>
        <time>2015-08-11T09:55:50Z</time>
      </trkpt>
      <trkpt lat="42.87742" lon="-0.04796">
        <ele>1462</ele>
        <time>2015-08-11T09:55:56Z</time>
      </trkpt>
      <trkpt lat="42.87746" lon="-0.04785">
        <ele>1459</ele>
        <time>2015-08-11T09:56:04Z</time>
      </trkpt>
      <trkpt lat="42.87754" lon="-0.04777">
        <ele>1475</ele>
        <time>2015-08-11T09:56:10Z</time>
      </trkpt>
      <trkpt lat="42.87758" lon="-0.04766">
        <ele>1469</ele>
        <time>2015-08-11T09:56:18Z</time>
      </trkpt>
      <trkpt lat="42.87763" lon="-0.04754">
        <ele>1466</ele>
        <time>2015-08-11T09:56:28Z</time>
      </trkpt>
      <trkpt lat="42.8777" lon="-0.04745">
        <ele>1452</ele>
        <time>2015-08-11T09:56:36Z</time>
      </trkpt>
      <trkpt lat="42.8778" lon="-0.04738">
        <ele>1453</ele>
        <time>2015-08-11T09:56:49Z</time>
      </trkpt>
      <trkpt lat="42.87788" lon="-0.04731">
        <ele>1453</ele>
        <time>2015-08-11T09:57:02Z</time>
      </trkpt>
      <trkpt lat="42.87796" lon="-0.04727">
        <ele>1455</ele>
        <time>2015-08-11T09:57:13Z</time>
      </trkpt>
      <trkpt lat="42.87803" lon="-0.04719">
        <ele>1455</ele>
        <time>2015-08-11T09:57:24Z</time>
      </trkpt>
      <trkpt lat="42.87812" lon="-0.04714">
        <ele>1455</ele>
        <time>2015-08-11T09:57:33Z</time>
      </trkpt>
      <trkpt lat="42.87818" lon="-0.04705">
        <ele>1454</ele>
        <time>2015-08-11T09:57:56Z</time>
      </trkpt>
      <trkpt lat="42.87816" lon="-0.04693">
        <ele>1451</ele>
        <time>2015-08-11T09:58:06Z</time>
      </trkpt>
      <trkpt lat="42.87818" lon="-0.04681">
        <ele>1450</ele>
        <time>2015-08-11T09:58:14Z</time>
      </trkpt>
      <trkpt lat="42.87823" lon="-0.0467">
        <ele>1450</ele>
        <time>2015-08-11T09:58:22Z</time>
      </trkpt>
      <trkpt lat="42.8783" lon="-0.04661">
        <ele>1442</ele>
        <time>2015-08-11T09:58:29Z</time>
      </trkpt>
      <trkpt lat="42.87836" lon="-0.0465">
        <ele>1446</ele>
        <time>2015-08-11T09:58:35Z</time>
      </trkpt>
      <trkpt lat="42.87827" lon="-0.04646">
        <ele>1431</ele>
        <time>2015-08-11T09:58:58Z</time>
      </trkpt>
      <trkpt lat="42.87818" lon="-0.04649">
        <ele>1430</ele>
        <time>2015-08-11T09:59:08Z</time>
      </trkpt>
      <trkpt lat="42.87814" lon="-0.04637">
        <ele>1425</ele>
        <time>2015-08-11T09:59:30Z</time>
      </trkpt>
      <trkpt lat="42.87815" lon="-0.04624">
        <ele>1421</ele>
        <time>2015-08-11T09:59:37Z</time>
      </trkpt>
      <trkpt lat="42.87822" lon="-0.04615">
        <ele>1420</ele>
        <time>2015-08-11T09:59:48Z</time>
      </trkpt>
      <trkpt lat="42.8782" lon="-0.04602">
        <ele>1418</ele>
        <time>2015-08-11T09:59:57Z</time>
      </trkpt>
      <trkpt lat="42.87822" lon="-0.04589">
        <ele>1417</ele>
        <time>2015-08-11T10:00:09Z</time>
      </trkpt>
      <trkpt lat="42.87815" lon="-0.04597">
        <ele>1417</ele>
        <time>2015-08-11T10:00:55Z</time>
      </trkpt>
      <trkpt lat="42.87811" lon="-0.04609">
        <ele>1418</ele>
        <time>2015-08-11T10:04:11Z</time>
      </trkpt>
      <trkpt lat="42.87803" lon="-0.04617">
        <ele>1418</ele>
        <time>2015-08-11T10:04:24Z</time>
      </trkpt>
      <trkpt lat="42.87795" lon="-0.04624">
        <ele>1417</ele>
        <time>2015-08-11T10:04:31Z</time>
      </trkpt>
      <trkpt lat="42.87787" lon="-0.04632">
        <ele>1417</ele>
        <time>2015-08-11T10:04:38Z</time>
      </trkpt>
      <trkpt lat="42.87779" lon="-0.04639">
        <ele>1418</ele>
        <time>2015-08-11T10:04:45Z</time>
      </trkpt>
      <trkpt lat="42.87772" lon="-0.04647">
        <ele>1418</ele>
        <time>2015-08-11T10:05:02Z</time>
      </trkpt>
      <trkpt lat="42.87779" lon="-0.0464">
        <ele>1418</ele>
        <time>2015-08-11T10:08:09Z</time>
      </trkpt>
      <trkpt lat="42.87787" lon="-0.04647">
        <ele>1420</ele>
        <time>2015-08-11T10:08:39Z</time>
      </trkpt>
      <trkpt lat="42.87796" lon="-0.04651">
        <ele>1423</ele>
        <time>2015-08-11T10:08:48Z</time>
      </trkpt>
      <trkpt lat="42.87784" lon="-0.04642">
        <ele>1419</ele>
        <time>2015-08-11T10:09:59Z</time>
      </trkpt>
      <trkpt lat="42.87773" lon="-0.04644">
        <ele>1418</ele>
        <time>2015-08-11T10:10:05Z</time>
      </trkpt>
      <trkpt lat="42.8776" lon="-0.04646">
        <ele>1417</ele>
        <time>2015-08-11T10:11:20Z</time>
      </trkpt>
      <trkpt lat="42.87749" lon="-0.04644">
        <ele>1402</ele>
        <time>2015-08-11T10:11:23Z</time>
      </trkpt>
      <trkpt lat="42.87738" lon="-0.04641">
        <ele>1399</ele>
        <time>2015-08-11T10:11:27Z</time>
      </trkpt>
      <trkpt lat="42.87729" lon="-0.04643">
        <ele>1397</ele>
        <time>2015-08-11T10:11:31Z</time>
      </trkpt>
      <trkpt lat="42.87717" lon="-0.04645">
        <ele>1395</ele>
        <time>2015-08-11T10:11:35Z</time>
      </trkpt>
      <trkpt lat="42.87709" lon="-0.04649">
        <ele>1394</ele>
        <time>2015-08-11T10:11:38Z</time>
      </trkpt>
      <trkpt lat="42.87699" lon="-0.04656">
        <ele>1393</ele>
        <time>2015-08-11T10:11:42Z</time>
      </trkpt>
      <trkpt lat="42.87692" lon="-0.04663">
        <ele>1392</ele>
        <time>2015-08-11T10:11:46Z</time>
      </trkpt>
      <trkpt lat="42.87684" lon="-0.04673">
        <ele>1406</ele>
        <time>2015-08-11T10:11:50Z</time>
      </trkpt>
      <trkpt lat="42.87678" lon="-0.04682">
        <ele>1406</ele>
        <time>2015-08-11T10:11:54Z</time>
      </trkpt>
      <trkpt lat="42.87673" lon="-0.04695">
        <ele>1411</ele>
        <time>2015-08-11T10:11:58Z</time>
      </trkpt>
      <trkpt lat="42.87669" lon="-0.04707">
        <ele>1414</ele>
        <time>2015-08-11T10:12:01Z</time>
      </trkpt>
      <trkpt lat="42.87665" lon="-0.04719">
        <ele>1399</ele>
        <time>2015-08-11T10:12:05Z</time>
      </trkpt>
      <trkpt lat="42.87662" lon="-0.04734">
        <ele>1405</ele>
        <time>2015-08-11T10:12:10Z</time>
      </trkpt>
      <trkpt lat="42.87654" lon="-0.0474">
        <ele>1405</ele>
        <time>2015-08-11T10:12:15Z</time>
      </trkpt>
      <trkpt lat="42.87659" lon="-0.04728">
        <ele>1402</ele>
        <time>2015-08-11T10:12:20Z</time>
      </trkpt>
      <trkpt lat="42.87652" lon="-0.04717">
        <ele>1397</ele>
        <time>2015-08-11T10:12:25Z</time>
      </trkpt>
      <trkpt lat="42.8765" lon="-0.04702">
        <ele>1393</ele>
        <time>2015-08-11T10:12:32Z</time>
      </trkpt>
      <trkpt lat="42.8765" lon="-0.04688">
        <ele>1391</ele>
        <time>2015-08-11T10:12:39Z</time>
      </trkpt>
      <trkpt lat="42.87657" lon="-0.04676">
        <ele>1391</ele>
        <time>2015-08-11T10:12:43Z</time>
      </trkpt>
      <trkpt lat="42.87663" lon="-0.04665">
        <ele>1387</ele>
        <time>2015-08-11T10:12:47Z</time>
      </trkpt>
      <trkpt lat="42.87666" lon="-0.04651">
        <ele>1383</ele>
        <time>2015-08-11T10:12:51Z</time>
      </trkpt>
      <trkpt lat="42.87671" lon="-0.04638">
        <ele>1388</ele>
        <time>2015-08-11T10:12:55Z</time>
      </trkpt>
      <trkpt lat="42.87682" lon="-0.04629">
        <ele>1387</ele>
        <time>2015-08-11T10:12:58Z</time>
      </trkpt>
      <trkpt lat="42.87692" lon="-0.0462">
        <ele>1387</ele>
        <time>2015-08-11T10:13:01Z</time>
      </trkpt>
      <trkpt lat="42.87703" lon="-0.04613">
        <ele>1387</ele>
        <time>2015-08-11T10:13:04Z</time>
      </trkpt>
      <trkpt lat="42.87712" lon="-0.0461">
        <ele>1387</ele>
        <time>2015-08-11T10:13:07Z</time>
      </trkpt>
      <trkpt lat="42.8772" lon="-0.04601">
        <ele>1386</ele>
        <time>2015-08-11T10:13:12Z</time>
      </trkpt>
      <trkpt lat="42.87708" lon="-0.04605">
        <ele>1386</ele>
        <time>2015-08-11T10:13:18Z</time>
      </trkpt>
      <trkpt lat="42.87698" lon="-0.0461">
        <ele>1385</ele>
        <time>2015-08-11T10:13:21Z</time>
      </trkpt>
      <trkpt lat="42.87689" lon="-0.04615">
        <ele>1385</ele>
        <time>2015-08-11T10:13:24Z</time>
      </trkpt>
      <trkpt lat="42.87679" lon="-0.04625">
        <ele>1386</ele>
        <time>2015-08-11T10:13:28Z</time>
      </trkpt>
      <trkpt lat="42.87674" lon="-0.04637">
        <ele>1388</ele>
        <time>2015-08-11T10:13:31Z</time>
      </trkpt>
      <trkpt lat="42.87667" lon="-0.04648">
        <ele>1389</ele>
        <time>2015-08-11T10:13:35Z</time>
      </trkpt>
      <trkpt lat="42.8766" lon="-0.04658">
        <ele>1385</ele>
        <time>2015-08-11T10:13:40Z</time>
      </trkpt>
      <trkpt lat="42.87654" lon="-0.04669">
        <ele>1390</ele>
        <time>2015-08-11T10:13:45Z</time>
      </trkpt>
      <trkpt lat="42.87645" lon="-0.04677">
        <ele>1390</ele>
        <time>2015-08-11T10:13:49Z</time>
      </trkpt>
      <trkpt lat="42.87637" lon="-0.04688">
        <ele>1390</ele>
        <time>2015-08-11T10:13:53Z</time>
      </trkpt>
      <trkpt lat="42.87627" lon="-0.04705">
        <ele>1391</ele>
        <time>2015-08-11T10:13:59Z</time>
      </trkpt>
      <trkpt lat="42.87621" lon="-0.04715">
        <ele>1391</ele>
        <time>2015-08-11T10:14:02Z</time>
      </trkpt>
      <trkpt lat="42.87613" lon="-0.04725">
        <ele>1391</ele>
        <time>2015-08-11T10:14:06Z</time>
      </trkpt>
      <trkpt lat="42.87604" lon="-0.04734">
        <ele>1389</ele>
        <time>2015-08-11T10:14:11Z</time>
      </trkpt>
      <trkpt lat="42.87595" lon="-0.04743">
        <ele>1388</ele>
        <time>2015-08-11T10:14:15Z</time>
      </trkpt>
      <trkpt lat="42.87585" lon="-0.04743">
        <ele>1386</ele>
        <time>2015-08-11T10:14:18Z</time>
      </trkpt>
      <trkpt lat="42.87575" lon="-0.04734">
        <ele>1383</ele>
        <time>2015-08-11T10:14:21Z</time>
      </trkpt>
      <trkpt lat="42.87583" lon="-0.0472">
        <ele>1382</ele>
        <time>2015-08-11T10:14:26Z</time>
      </trkpt>
      <trkpt lat="42.87591" lon="-0.0471">
        <ele>1387</ele>
        <time>2015-08-11T10:14:29Z</time>
      </trkpt>
      <trkpt lat="42.87597" lon="-0.047">
        <ele>1386</ele>
        <time>2015-08-11T10:14:32Z</time>
      </trkpt>
      <trkpt lat="42.87603" lon="-0.04688">
        <ele>1384</ele>
        <time>2015-08-11T10:14:35Z</time>
      </trkpt>
      <trkpt lat="42.87609" lon="-0.04677">
        <ele>1384</ele>
        <time>2015-08-11T10:14:38Z</time>
      </trkpt>
      <trkpt lat="42.87617" lon="-0.04669">
        <ele>1385</ele>
        <time>2015-08-11T10:14:41Z</time>
      </trkpt>
      <trkpt lat="42.87624" lon="-0.0466">
        <ele>1377</ele>
        <time>2015-08-11T10:14:44Z</time>
      </trkpt>
      <trkpt lat="42.87631" lon="-0.04652">
        <ele>1378</ele>
        <time>2015-08-11T10:14:47Z</time>
      </trkpt>
      <trkpt lat="42.87643" lon="-0.04639">
        <ele>1378</ele>
        <time>2015-08-11T10:14:52Z</time>
      </trkpt>
      <trkpt lat="42.8765" lon="-0.04621">
        <ele>1376</ele>
        <time>2015-08-11T10:14:58Z</time>
      </trkpt>
      <trkpt lat="42.87645" lon="-0.04609">
        <ele>1375</ele>
        <time>2015-08-11T10:15:03Z</time>
      </trkpt>
      <trkpt lat="42.87644" lon="-0.04596">
        <ele>1374</ele>
        <time>2015-08-11T10:15:08Z</time>
      </trkpt>
      <trkpt lat="42.87648" lon="-0.04585">
        <ele>1372</ele>
        <time>2015-08-11T10:15:16Z</time>
      </trkpt>
      <trkpt lat="42.87657" lon="-0.04582">
        <ele>1369</ele>
        <time>2015-08-11T10:15:23Z</time>
      </trkpt>
      <trkpt lat="42.87648" lon="-0.04585">
        <ele>1372</ele>
        <time>2015-08-11T10:16:38Z</time>
      </trkpt>
      <trkpt lat="42.87654" lon="-0.04576">
        <ele>1369</ele>
        <time>2015-08-11T10:17:34Z</time>
      </trkpt>
      <trkpt lat="42.87647" lon="-0.04583">
        <ele>1370</ele>
        <time>2015-08-11T10:18:18Z</time>
      </trkpt>
      <trkpt lat="42.87656" lon="-0.04581">
        <ele>1369</ele>
        <time>2015-08-11T10:18:45Z</time>
      </trkpt>
      <trkpt lat="42.87648" lon="-0.04587">
        <ele>1373</ele>
        <time>2015-08-11T10:19:15Z</time>
      </trkpt>
      <trkpt lat="42.87647" lon="-0.04574">
        <ele>1370</ele>
        <time>2015-08-11T10:22:17Z</time>
      </trkpt>
      <trkpt lat="42.87638" lon="-0.04579">
        <ele>1370</ele>
        <time>2015-08-11T10:25:40Z</time>
      </trkpt>
      <trkpt lat="42.87646" lon="-0.04572">
        <ele>1370</ele>
        <time>2015-08-11T10:27:32Z</time>
      </trkpt>
      <trkpt lat="42.87637" lon="-0.04576">
        <ele>1370</ele>
        <time>2015-08-11T10:28:06Z</time>
      </trkpt>
      <trkpt lat="42.87641" lon="-0.04588">
        <ele>1373</ele>
        <time>2015-08-11T10:30:26Z</time>
      </trkpt>
      <trkpt lat="42.87641" lon="-0.04576">
        <ele>1370</ele>
        <time>2015-08-11T10:32:02Z</time>
      </trkpt>
      <trkpt lat="42.87632" lon="-0.04578">
        <ele>1371</ele>
        <time>2015-08-11T10:33:02Z</time>
      </trkpt>
      <trkpt lat="42.87641" lon="-0.04577">
        <ele>1370</ele>
        <time>2015-08-11T10:36:30Z</time>
      </trkpt>
      <trkpt lat="42.87636" lon="-0.04587">
        <ele>1374</ele>
        <time>2015-08-11T10:37:29Z</time>
      </trkpt>
      <trkpt lat="42.87629" lon="-0.04595">
        <ele>1374</ele>
        <time>2015-08-11T10:37:53Z</time>
      </trkpt>
      <trkpt lat="42.87627" lon="-0.04607">
        <ele>1375</ele>
        <time>2015-08-11T10:38:06Z</time>
      </trkpt>
      <trkpt lat="42.87633" lon="-0.04596">
        <ele>1374</ele>
        <time>2015-08-11T10:38:28Z</time>
      </trkpt>
      <trkpt lat="42.87642" lon="-0.04587">
        <ele>1373</ele>
        <time>2015-08-11T10:38:33Z</time>
      </trkpt>
      <trkpt lat="42.87634" lon="-0.04594">
        <ele>1374</ele>
        <time>2015-08-11T10:46:13Z</time>
      </trkpt>
      <trkpt lat="42.87632" lon="-0.04607">
        <ele>1375</ele>
        <time>2015-08-11T10:47:27Z</time>
      </trkpt>
      <trkpt lat="42.8764" lon="-0.04595">
        <ele>1374</ele>
        <time>2015-08-11T10:49:34Z</time>
      </trkpt>
      <trkpt lat="42.87647" lon="-0.04585">
        <ele>1373</ele>
        <time>2015-08-11T10:49:41Z</time>
      </trkpt>
      <trkpt lat="42.87653" lon="-0.04575">
        <ele>1369</ele>
        <time>2015-08-11T10:50:03Z</time>
      </trkpt>
      <trkpt lat="42.87662" lon="-0.04561">
        <ele>1369</ele>
        <time>2015-08-11T10:50:23Z</time>
      </trkpt>
      <trkpt lat="42.87668" lon="-0.04552">
        <ele>1365</ele>
        <time>2015-08-11T10:50:34Z</time>
      </trkpt>
      <trkpt lat="42.87674" lon="-0.04539">
        <ele>1364</ele>
        <time>2015-08-11T10:50:45Z</time>
      </trkpt>
      <trkpt lat="42.8768" lon="-0.0453">
        <ele>1363</ele>
        <time>2015-08-11T10:51:00Z</time>
      </trkpt>
      <trkpt lat="42.87683" lon="-0.04518">
        <ele>1362</ele>
        <time>2015-08-11T10:51:06Z</time>
      </trkpt>
      <trkpt lat="42.87685" lon="-0.04506">
        <ele>1361</ele>
        <time>2015-08-11T10:51:13Z</time>
      </trkpt>
      <trkpt lat="42.87689" lon="-0.04493">
        <ele>1353</ele>
        <time>2015-08-11T10:51:21Z</time>
      </trkpt>
      <trkpt lat="42.87689" lon="-0.04481">
        <ele>1352</ele>
        <time>2015-08-11T10:51:31Z</time>
      </trkpt>
      <trkpt lat="42.8769" lon="-0.04467">
        <ele>1350</ele>
        <time>2015-08-11T10:51:39Z</time>
      </trkpt>
      <trkpt lat="42.87691" lon="-0.04454">
        <ele>1349</ele>
        <time>2015-08-11T10:51:51Z</time>
      </trkpt>
      <trkpt lat="42.87693" lon="-0.04442">
        <ele>1348</ele>
        <time>2015-08-11T10:52:02Z</time>
      </trkpt>
      <trkpt lat="42.87693" lon="-0.04429">
        <ele>1348</ele>
        <time>2015-08-11T10:52:08Z</time>
      </trkpt>
      <trkpt lat="42.87692" lon="-0.04416">
        <ele>1339</ele>
        <time>2015-08-11T10:52:15Z</time>
      </trkpt>
      <trkpt lat="42.87688" lon="-0.04404">
        <ele>1339</ele>
        <time>2015-08-11T10:52:23Z</time>
      </trkpt>
      <trkpt lat="42.87685" lon="-0.04391">
        <ele>1338</ele>
        <time>2015-08-11T10:52:35Z</time>
      </trkpt>
      <trkpt lat="42.87686" lon="-0.04379">
        <ele>1336</ele>
        <time>2015-08-11T10:52:42Z</time>
      </trkpt>
      <trkpt lat="42.87683" lon="-0.04364">
        <ele>1335</ele>
        <time>2015-08-11T10:52:51Z</time>
      </trkpt>
      <trkpt lat="42.87681" lon="-0.04351">
        <ele>1335</ele>
        <time>2015-08-11T10:52:59Z</time>
      </trkpt>
      <trkpt lat="42.87678" lon="-0.04338">
        <ele>1336</ele>
        <time>2015-08-11T10:53:07Z</time>
      </trkpt>
      <trkpt lat="42.87673" lon="-0.04327">
        <ele>1332</ele>
        <time>2015-08-11T10:53:15Z</time>
      </trkpt>
      <trkpt lat="42.87671" lon="-0.04313">
        <ele>1326</ele>
        <time>2015-08-11T10:53:23Z</time>
      </trkpt>
      <trkpt lat="42.87667" lon="-0.04301">
        <ele>1323</ele>
        <time>2015-08-11T10:53:31Z</time>
      </trkpt>
      <trkpt lat="42.87664" lon="-0.0429">
        <ele>1340</ele>
        <time>2015-08-11T10:53:38Z</time>
      </trkpt>
      <trkpt lat="42.8766" lon="-0.04277">
        <ele>1338</ele>
        <time>2015-08-11T10:53:47Z</time>
      </trkpt>
      <trkpt lat="42.87656" lon="-0.04265">
        <ele>1334</ele>
        <time>2015-08-11T10:53:55Z</time>
      </trkpt>
      <trkpt lat="42.87653" lon="-0.04252">
        <ele>1332</ele>
        <time>2015-08-11T10:54:02Z</time>
      </trkpt>
      <trkpt lat="42.87652" lon="-0.0424">
        <ele>1327</ele>
        <time>2015-08-11T10:54:10Z</time>
      </trkpt>
      <trkpt lat="42.8765" lon="-0.04227">
        <ele>1329</ele>
        <time>2015-08-11T10:54:19Z</time>
      </trkpt>
      <trkpt lat="42.87649" lon="-0.04214">
        <ele>1329</ele>
        <time>2015-08-11T10:54:32Z</time>
      </trkpt>
      <trkpt lat="42.87649" lon="-0.042">
        <ele>1328</ele>
        <time>2015-08-11T10:54:47Z</time>
      </trkpt>
      <trkpt lat="42.87653" lon="-0.04189">
        <ele>1325</ele>
        <time>2015-08-11T10:54:57Z</time>
      </trkpt>
      <trkpt lat="42.87652" lon="-0.04176">
        <ele>1322</ele>
        <time>2015-08-11T10:55:15Z</time>
      </trkpt>
      <trkpt lat="42.87651" lon="-0.04163">
        <ele>1318</ele>
        <time>2015-08-11T10:55:21Z</time>
      </trkpt>
      <trkpt lat="42.87651" lon="-0.0415">
        <ele>1319</ele>
        <time>2015-08-11T10:55:25Z</time>
      </trkpt>
      <trkpt lat="42.8765" lon="-0.04136">
        <ele>1321</ele>
        <time>2015-08-11T10:55:32Z</time>
      </trkpt>
      <trkpt lat="42.87652" lon="-0.04123">
        <ele>1320</ele>
        <time>2015-08-11T10:55:40Z</time>
      </trkpt>
      <trkpt lat="42.87653" lon="-0.04111">
        <ele>1318</ele>
        <time>2015-08-11T10:55:53Z</time>
      </trkpt>
      <trkpt lat="42.87652" lon="-0.04099">
        <ele>1316</ele>
        <time>2015-08-11T10:56:00Z</time>
      </trkpt>
      <trkpt lat="42.87653" lon="-0.04086">
        <ele>1312</ele>
        <time>2015-08-11T10:56:09Z</time>
      </trkpt>
      <trkpt lat="42.87655" lon="-0.04073">
        <ele>1312</ele>
        <time>2015-08-11T10:56:14Z</time>
      </trkpt>
      <trkpt lat="42.87658" lon="-0.04061">
        <ele>1315</ele>
        <time>2015-08-11T10:56:21Z</time>
      </trkpt>
      <trkpt lat="42.87662" lon="-0.04049">
        <ele>1317</ele>
        <time>2015-08-11T10:56:32Z</time>
      </trkpt>
      <trkpt lat="42.87666" lon="-0.04038">
        <ele>1317</ele>
        <time>2015-08-11T10:56:39Z</time>
      </trkpt>
      <trkpt lat="42.87671" lon="-0.04026">
        <ele>1294</ele>
        <time>2015-08-11T10:56:49Z</time>
      </trkpt>
      <trkpt lat="42.87677" lon="-0.04015">
        <ele>1296</ele>
        <time>2015-08-11T10:56:55Z</time>
      </trkpt>
      <trkpt lat="42.87684" lon="-0.04007">
        <ele>1295</ele>
        <time>2015-08-11T10:57:01Z</time>
      </trkpt>
      <trkpt lat="42.87685" lon="-0.03994">
        <ele>1293</ele>
        <time>2015-08-11T10:57:07Z</time>
      </trkpt>
      <trkpt lat="42.87682" lon="-0.03982">
        <ele>1291</ele>
        <time>2015-08-11T10:57:15Z</time>
      </trkpt>
      <trkpt lat="42.87686" lon="-0.03967">
        <ele>1289</ele>
        <time>2015-08-11T10:57:21Z</time>
      </trkpt>
      <trkpt lat="42.8769" lon="-0.03955">
        <ele>1287</ele>
        <time>2015-08-11T10:57:27Z</time>
      </trkpt>
      <trkpt lat="42.87688" lon="-0.03943">
        <ele>1288</ele>
        <time>2015-08-11T10:57:32Z</time>
      </trkpt>
      <trkpt lat="42.87686" lon="-0.0393">
        <ele>1289</ele>
        <time>2015-08-11T10:57:39Z</time>
      </trkpt>
      <trkpt lat="42.87686" lon="-0.03916">
        <ele>1288</ele>
        <time>2015-08-11T10:57:48Z</time>
      </trkpt>
      <trkpt lat="42.87686" lon="-0.03903">
        <ele>1287</ele>
        <time>2015-08-11T10:57:56Z</time>
      </trkpt>
      <trkpt lat="42.87688" lon="-0.03888">
        <ele>1285</ele>
        <time>2015-08-11T10:58:04Z</time>
      </trkpt>
      <trkpt lat="42.87688" lon="-0.03874">
        <ele>1285</ele>
        <time>2015-08-11T10:58:15Z</time>
      </trkpt>
      <trkpt lat="42.87689" lon="-0.03861">
        <ele>1285</ele>
        <time>2015-08-11T10:58:22Z</time>
      </trkpt>
      <trkpt lat="42.87693" lon="-0.03848">
        <ele>1285</ele>
        <time>2015-08-11T10:58:30Z</time>
      </trkpt>
      <trkpt lat="42.87696" lon="-0.03837">
        <ele>1285</ele>
        <time>2015-08-11T10:58:37Z</time>
      </trkpt>
      <trkpt lat="42.877" lon="-0.03825">
        <ele>1286</ele>
        <time>2015-08-11T10:58:45Z</time>
      </trkpt>
      <trkpt lat="42.87707" lon="-0.03816">
        <ele>1284</ele>
        <time>2015-08-11T10:58:54Z</time>
      </trkpt>
      <trkpt lat="42.87713" lon="-0.03807">
        <ele>1283</ele>
        <time>2015-08-11T10:59:02Z</time>
      </trkpt>
      <trkpt lat="42.87721" lon="-0.03799">
        <ele>1282</ele>
        <time>2015-08-11T10:59:14Z</time>
      </trkpt>
      <trkpt lat="42.87724" lon="-0.03778">
        <ele>1281</ele>
        <time>2015-08-11T10:59:30Z</time>
      </trkpt>
      <trkpt lat="42.8773" lon="-0.03766">
        <ele>1279</ele>
        <time>2015-08-11T10:59:33Z</time>
      </trkpt>
      <trkpt lat="42.87736" lon="-0.03755">
        <ele>1276</ele>
        <time>2015-08-11T10:59:36Z</time>
      </trkpt>
      <trkpt lat="42.8774" lon="-0.03744">
        <ele>1277</ele>
        <time>2015-08-11T10:59:45Z</time>
      </trkpt>
      <trkpt lat="42.87745" lon="-0.03733">
        <ele>1280</ele>
        <time>2015-08-11T10:59:51Z</time>
      </trkpt>
      <trkpt lat="42.87752" lon="-0.03723">
        <ele>1260</ele>
        <time>2015-08-11T10:59:58Z</time>
      </trkpt>
      <trkpt lat="42.87757" lon="-0.03712">
        <ele>1260</ele>
        <time>2015-08-11T11:00:05Z</time>
      </trkpt>
      <trkpt lat="42.87763" lon="-0.03699">
        <ele>1260</ele>
        <time>2015-08-11T11:00:15Z</time>
      </trkpt>
      <trkpt lat="42.87767" lon="-0.03688">
        <ele>1260</ele>
        <time>2015-08-11T11:00:22Z</time>
      </trkpt>
      <trkpt lat="42.87773" lon="-0.03676">
        <ele>1260</ele>
        <time>2015-08-11T11:00:29Z</time>
      </trkpt>
      <trkpt lat="42.87776" lon="-0.03664">
        <ele>1261</ele>
        <time>2015-08-11T11:00:35Z</time>
      </trkpt>
      <trkpt lat="42.87776" lon="-0.03652">
        <ele>1260</ele>
        <time>2015-08-11T11:00:47Z</time>
      </trkpt>
      <trkpt lat="42.8778" lon="-0.03636">
        <ele>1259</ele>
        <time>2015-08-11T11:00:54Z</time>
      </trkpt>
      <trkpt lat="42.87782" lon="-0.03623">
        <ele>1259</ele>
        <time>2015-08-11T11:01:01Z</time>
      </trkpt>
      <trkpt lat="42.87784" lon="-0.03609">
        <ele>1259</ele>
        <time>2015-08-11T11:01:11Z</time>
      </trkpt>
      <trkpt lat="42.87788" lon="-0.03596">
        <ele>1258</ele>
        <time>2015-08-11T11:01:14Z</time>
      </trkpt>
      <trkpt lat="42.87791" lon="-0.03584">
        <ele>1257</ele>
        <time>2015-08-11T11:01:22Z</time>
      </trkpt>
      <trkpt lat="42.87797" lon="-0.03573">
        <ele>1255</ele>
        <time>2015-08-11T11:01:28Z</time>
      </trkpt>
      <trkpt lat="42.87802" lon="-0.03562">
        <ele>1254</ele>
        <time>2015-08-11T11:01:36Z</time>
      </trkpt>
      <trkpt lat="42.87804" lon="-0.0355">
        <ele>1253</ele>
        <time>2015-08-11T11:01:43Z</time>
      </trkpt>
      <trkpt lat="42.87809" lon="-0.03539">
        <ele>1252</ele>
        <time>2015-08-11T11:01:53Z</time>
      </trkpt>
      <trkpt lat="42.87812" lon="-0.03526">
        <ele>1250</ele>
        <time>2015-08-11T11:02:06Z</time>
      </trkpt>
      <trkpt lat="42.87815" lon="-0.03513">
        <ele>1247</ele>
        <time>2015-08-11T11:02:12Z</time>
      </trkpt>
      <trkpt lat="42.87814" lon="-0.03501">
        <ele>1246</ele>
        <time>2015-08-11T11:02:31Z</time>
      </trkpt>
      <trkpt lat="42.87811" lon="-0.03489">
        <ele>1241</ele>
        <time>2015-08-11T11:02:44Z</time>
      </trkpt>
      <trkpt lat="42.8782" lon="-0.03491">
        <ele>1238</ele>
        <time>2015-08-11T11:03:16Z</time>
      </trkpt>
      <trkpt lat="42.8783" lon="-0.03491">
        <ele>1236</ele>
        <time>2015-08-11T11:03:27Z</time>
      </trkpt>
      <trkpt lat="42.87838" lon="-0.03497">
        <ele>1227</ele>
        <time>2015-08-11T11:03:40Z</time>
      </trkpt>
      <trkpt lat="42.87844" lon="-0.03486">
        <ele>1220</ele>
        <time>2015-08-11T11:03:55Z</time>
      </trkpt>
      <trkpt lat="42.87854" lon="-0.03487">
        <ele>1217</ele>
        <time>2015-08-11T11:04:23Z</time>
      </trkpt>
      <trkpt lat="42.87863" lon="-0.03486">
        <ele>1214</ele>
        <time>2015-08-11T11:04:32Z</time>
      </trkpt>
      <trkpt lat="42.87864" lon="-0.03473">
        <ele>1212</ele>
        <time>2015-08-11T11:04:59Z</time>
      </trkpt>
      <trkpt lat="42.87863" lon="-0.0346">
        <ele>1210</ele>
        <time>2015-08-11T11:05:20Z</time>
      </trkpt>
      <trkpt lat="42.87868" lon="-0.0345">
        <ele>1208</ele>
        <time>2015-08-11T11:05:51Z</time>
      </trkpt>
      <trkpt lat="42.87875" lon="-0.0344">
        <ele>1206</ele>
        <time>2015-08-11T11:06:10Z</time>
      </trkpt>
      <trkpt lat="42.87883" lon="-0.03433">
        <ele>1203</ele>
        <time>2015-08-11T11:06:30Z</time>
      </trkpt>
      <trkpt lat="42.87892" lon="-0.03425">
        <ele>1200</ele>
        <time>2015-08-11T11:06:44Z</time>
      </trkpt>
      <trkpt lat="42.87899" lon="-0.03416">
        <ele>1186</ele>
        <time>2015-08-11T11:06:56Z</time>
      </trkpt>
      <trkpt lat="42.87902" lon="-0.03405">
        <ele>1186</ele>
        <time>2015-08-11T11:07:05Z</time>
      </trkpt>
      <trkpt lat="42.87901" lon="-0.03392">
        <ele>1185</ele>
        <time>2015-08-11T11:07:12Z</time>
      </trkpt>
      <trkpt lat="42.87901" lon="-0.03379">
        <ele>1184</ele>
        <time>2015-08-11T11:07:38Z</time>
      </trkpt>
      <trkpt lat="42.87903" lon="-0.03365">
        <ele>1181</ele>
        <time>2015-08-11T11:07:53Z</time>
      </trkpt>
      <trkpt lat="42.87904" lon="-0.03352">
        <ele>1177</ele>
        <time>2015-08-11T11:08:04Z</time>
      </trkpt>
      <trkpt lat="42.87905" lon="-0.03338">
        <ele>1172</ele>
        <time>2015-08-11T11:08:38Z</time>
      </trkpt>
      <trkpt lat="42.87905" lon="-0.03326">
        <ele>1163</ele>
        <time>2015-08-11T11:08:45Z</time>
      </trkpt>
      <trkpt lat="42.87902" lon="-0.03313">
        <ele>1162</ele>
        <time>2015-08-11T11:09:00Z</time>
      </trkpt>
      <trkpt lat="42.87899" lon="-0.03301">
        <ele>1161</ele>
        <time>2015-08-11T11:09:13Z</time>
      </trkpt>
      <trkpt lat="42.87895" lon="-0.0329">
        <ele>1160</ele>
        <time>2015-08-11T11:09:22Z</time>
      </trkpt>
      <trkpt lat="42.87891" lon="-0.03279">
        <ele>1158</ele>
        <time>2015-08-11T11:09:31Z</time>
      </trkpt>
      <trkpt lat="42.87884" lon="-0.0327">
        <ele>1158</ele>
        <time>2015-08-11T11:09:47Z</time>
      </trkpt>
      <trkpt lat="42.87892" lon="-0.03264">
        <ele>1154</ele>
        <time>2015-08-11T11:10:22Z</time>
      </trkpt>
      <trkpt lat="42.87901" lon="-0.03268">
        <ele>1152</ele>
        <time>2015-08-11T11:10:32Z</time>
      </trkpt>
      <trkpt lat="42.879" lon="-0.03254">
        <ele>1149</ele>
        <time>2015-08-11T11:10:56Z</time>
      </trkpt>
      <trkpt lat="42.87896" lon="-0.03243">
        <ele>1139</ele>
        <time>2015-08-11T11:11:11Z</time>
      </trkpt>
      <trkpt lat="42.87896" lon="-0.0323">
        <ele>1139</ele>
        <time>2015-08-11T11:11:28Z</time>
      </trkpt>
      <trkpt lat="42.87901" lon="-0.03219">
        <ele>1137</ele>
        <time>2015-08-11T11:11:43Z</time>
      </trkpt>
      <trkpt lat="42.87905" lon="-0.03207">
        <ele>1135</ele>
        <time>2015-08-11T11:11:51Z</time>
      </trkpt>
      <trkpt lat="42.87904" lon="-0.03195">
        <ele>1132</ele>
        <time>2015-08-11T11:12:01Z</time>
      </trkpt>
      <trkpt lat="42.87905" lon="-0.03182">
        <ele>1128</ele>
        <time>2015-08-11T11:12:09Z</time>
      </trkpt>
      <trkpt lat="42.87901" lon="-0.03171">
        <ele>1126</ele>
        <time>2015-08-11T11:12:16Z</time>
      </trkpt>
      <trkpt lat="42.87902" lon="-0.03158">
        <ele>1116</ele>
        <time>2015-08-11T11:12:24Z</time>
      </trkpt>
      <trkpt lat="42.879" lon="-0.03146">
        <ele>1117</ele>
        <time>2015-08-11T11:12:34Z</time>
      </trkpt>
      <trkpt lat="42.87896" lon="-0.03135">
        <ele>1116</ele>
        <time>2015-08-11T11:12:41Z</time>
      </trkpt>
      <trkpt lat="42.87889" lon="-0.03125">
        <ele>1116</ele>
        <time>2015-08-11T11:12:50Z</time>
      </trkpt>
      <trkpt lat="42.87889" lon="-0.03112">
        <ele>1114</ele>
        <time>2015-08-11T11:13:04Z</time>
      </trkpt>
      <trkpt lat="42.87882" lon="-0.03103">
        <ele>1114</ele>
        <time>2015-08-11T11:13:14Z</time>
      </trkpt>
      <trkpt lat="42.87876" lon="-0.03094">
        <ele>1115</ele>
        <time>2015-08-11T11:13:21Z</time>
      </trkpt>
      <trkpt lat="42.87873" lon="-0.03082">
        <ele>1101</ele>
        <time>2015-08-11T11:13:34Z</time>
      </trkpt>
      <trkpt lat="42.8787" lon="-0.0307">
        <ele>1101</ele>
        <time>2015-08-11T11:13:52Z</time>
      </trkpt>
      <trkpt lat="42.87869" lon="-0.03057">
        <ele>1099</ele>
        <time>2015-08-11T11:13:58Z</time>
      </trkpt>
      <trkpt lat="42.87868" lon="-0.03043">
        <ele>1097</ele>
        <time>2015-08-11T11:14:04Z</time>
      </trkpt>
      <trkpt lat="42.87866" lon="-0.03031">
        <ele>1096</ele>
        <time>2015-08-11T11:14:11Z</time>
      </trkpt>
      <trkpt lat="42.8786" lon="-0.0302">
        <ele>1096</ele>
        <time>2015-08-11T11:14:18Z</time>
      </trkpt>
      <trkpt lat="42.87852" lon="-0.03012">
        <ele>1096</ele>
        <time>2015-08-11T11:14:31Z</time>
      </trkpt>
      <trkpt lat="42.87847" lon="-0.03002">
        <ele>1097</ele>
        <time>2015-08-11T11:14:41Z</time>
      </trkpt>
      <trkpt lat="42.87845" lon="-0.02988">
        <ele>1086</ele>
        <time>2015-08-11T11:14:50Z</time>
      </trkpt>
      <trkpt lat="42.87841" lon="-0.02976">
        <ele>1083</ele>
        <time>2015-08-11T11:15:00Z</time>
      </trkpt>
      <trkpt lat="42.87842" lon="-0.02962">
        <ele>1079</ele>
        <time>2015-08-11T11:15:11Z</time>
      </trkpt>
      <trkpt lat="42.87843" lon="-0.02948">
        <ele>1076</ele>
        <time>2015-08-11T11:15:17Z</time>
      </trkpt>
      <trkpt lat="42.87841" lon="-0.02936">
        <ele>1075</ele>
        <time>2015-08-11T11:15:28Z</time>
      </trkpt>
      <trkpt lat="42.87833" lon="-0.02928">
        <ele>1084</ele>
        <time>2015-08-11T11:15:40Z</time>
      </trkpt>
      <trkpt lat="42.87826" lon="-0.02914">
        <ele>1076</ele>
        <time>2015-08-11T11:15:54Z</time>
      </trkpt>
      <trkpt lat="42.87822" lon="-0.02903">
        <ele>1076</ele>
        <time>2015-08-11T11:16:06Z</time>
      </trkpt>
      <trkpt lat="42.8782" lon="-0.02889">
        <ele>1075</ele>
        <time>2015-08-11T11:16:13Z</time>
      </trkpt>
      <trkpt lat="42.87815" lon="-0.02876">
        <ele>1074</ele>
        <time>2015-08-11T11:16:23Z</time>
      </trkpt>
      <trkpt lat="42.8781" lon="-0.02865">
        <ele>1072</ele>
        <time>2015-08-11T11:16:31Z</time>
      </trkpt>
      <trkpt lat="42.87804" lon="-0.02854">
        <ele>1072</ele>
        <time>2015-08-11T11:16:40Z</time>
      </trkpt>
      <trkpt lat="42.87798" lon="-0.02844">
        <ele>1072</ele>
        <time>2015-08-11T11:16:48Z</time>
      </trkpt>
      <trkpt lat="42.87792" lon="-0.02833">
        <ele>1058</ele>
        <time>2015-08-11T11:16:56Z</time>
      </trkpt>
      <trkpt lat="42.87785" lon="-0.02824">
        <ele>1059</ele>
        <time>2015-08-11T11:17:04Z</time>
      </trkpt>
      <trkpt lat="42.8778" lon="-0.02812">
        <ele>1058</ele>
        <time>2015-08-11T11:17:14Z</time>
      </trkpt>
      <trkpt lat="42.87776" lon="-0.02801">
        <ele>1057</ele>
        <time>2015-08-11T11:17:24Z</time>
      </trkpt>
      <trkpt lat="42.87771" lon="-0.02791">
        <ele>1056</ele>
        <time>2015-08-11T11:17:33Z</time>
      </trkpt>
      <trkpt lat="42.87765" lon="-0.02781">
        <ele>1055</ele>
        <time>2015-08-11T11:17:44Z</time>
      </trkpt>
      <trkpt lat="42.87774" lon="-0.02776">
        <ele>1054</ele>
        <time>2015-08-11T11:18:16Z</time>
      </trkpt>
      <trkpt lat="42.87784" lon="-0.02777">
        <ele>1052</ele>
        <time>2015-08-11T11:18:31Z</time>
      </trkpt>
      <trkpt lat="42.87796" lon="-0.02779">
        <ele>1050</ele>
        <time>2015-08-11T11:18:41Z</time>
      </trkpt>
      <trkpt lat="42.87804" lon="-0.02785">
        <ele>1049</ele>
        <time>2015-08-11T11:18:59Z</time>
      </trkpt>
      <trkpt lat="42.87814" lon="-0.02785">
        <ele>1048</ele>
        <time>2015-08-11T11:19:10Z</time>
      </trkpt>
      <trkpt lat="42.87824" lon="-0.02785">
        <ele>1046</ele>
        <time>2015-08-11T11:19:21Z</time>
      </trkpt>
      <trkpt lat="42.87834" lon="-0.02787">
        <ele>1029</ele>
        <time>2015-08-11T11:19:28Z</time>
      </trkpt>
      <trkpt lat="42.87842" lon="-0.02795">
        <ele>1030</ele>
        <time>2015-08-11T11:19:37Z</time>
      </trkpt>
      <trkpt lat="42.8785" lon="-0.02802">
        <ele>1031</ele>
        <time>2015-08-11T11:19:52Z</time>
      </trkpt>
      <trkpt lat="42.8786" lon="-0.02804">
        <ele>1030</ele>
        <time>2015-08-11T11:20:12Z</time>
      </trkpt>
      <trkpt lat="42.87869" lon="-0.02807">
        <ele>1028</ele>
        <time>2015-08-11T11:20:41Z</time>
      </trkpt>
      <trkpt lat="42.87877" lon="-0.028">
        <ele>1026</ele>
        <time>2015-08-11T11:20:50Z</time>
      </trkpt>
      <trkpt lat="42.87883" lon="-0.0279">
        <ele>1024</ele>
        <time>2015-08-11T11:21:05Z</time>
      </trkpt>
      <trkpt lat="42.8789" lon="-0.02782">
        <ele>1021</ele>
        <time>2015-08-11T11:21:14Z</time>
      </trkpt>
      <trkpt lat="42.87899" lon="-0.02779">
        <ele>1019</ele>
        <time>2015-08-11T11:21:36Z</time>
      </trkpt>
      <trkpt lat="42.87901" lon="-0.02767">
        <ele>1015</ele>
        <time>2015-08-11T11:21:53Z</time>
      </trkpt>
      <trkpt lat="42.87907" lon="-0.02757">
        <ele>1009</ele>
        <time>2015-08-11T11:22:50Z</time>
      </trkpt>
      <trkpt lat="42.87916" lon="-0.0275">
        <ele>1000</ele>
        <time>2015-08-11T11:23:11Z</time>
      </trkpt>
      <trkpt lat="42.87923" lon="-0.0274">
        <ele>992</ele>
        <time>2015-08-11T11:23:23Z</time>
      </trkpt>
      <trkpt lat="42.87929" lon="-0.02732">
        <ele>987</ele>
        <time>2015-08-11T11:23:42Z</time>
      </trkpt>
      <trkpt lat="42.87935" lon="-0.02723">
        <ele>983</ele>
        <time>2015-08-11T11:23:57Z</time>
      </trkpt>
      <trkpt lat="42.87942" lon="-0.02713">
        <ele>980</ele>
        <time>2015-08-11T11:24:19Z</time>
      </trkpt>
      <trkpt lat="42.8795" lon="-0.02707">
        <ele>978</ele>
        <time>2015-08-11T11:24:37Z</time>
      </trkpt>
      <trkpt lat="42.87956" lon="-0.02698">
        <ele>976</ele>
        <time>2015-08-11T11:25:01Z</time>
      </trkpt>
      <trkpt lat="42.87963" lon="-0.02689">
        <ele>974</ele>
        <time>2015-08-11T11:25:18Z</time>
      </trkpt>
      <trkpt lat="42.87967" lon="-0.02677">
        <ele>972</ele>
        <time>2015-08-11T11:25:39Z</time>
      </trkpt>
      <trkpt lat="42.87974" lon="-0.02667">
        <ele>970</ele>
        <time>2015-08-11T11:25:54Z</time>
      </trkpt>
      <trkpt lat="42.87981" lon="-0.02658">
        <ele>956</ele>
        <time>2015-08-11T11:26:02Z</time>
      </trkpt>
      <trkpt lat="42.87988" lon="-0.02651">
        <ele>956</ele>
        <time>2015-08-11T11:26:22Z</time>
      </trkpt>
      <trkpt lat="42.87997" lon="-0.02646">
        <ele>955</ele>
        <time>2015-08-11T11:26:38Z</time>
      </trkpt>
      <trkpt lat="42.88006" lon="-0.02645">
        <ele>950</ele>
        <time>2015-08-11T11:26:52Z</time>
      </trkpt>
      <trkpt lat="42.88016" lon="-0.02642">
        <ele>949</ele>
        <time>2015-08-11T11:27:04Z</time>
      </trkpt>
      <trkpt lat="42.88025" lon="-0.02636">
        <ele>947</ele>
        <time>2015-08-11T11:27:17Z</time>
      </trkpt>
      <trkpt lat="42.88033" lon="-0.02627">
        <ele>946</ele>
        <time>2015-08-11T11:27:25Z</time>
      </trkpt>
      <trkpt lat="42.8804" lon="-0.02618">
        <ele>944</ele>
        <time>2015-08-11T11:27:43Z</time>
      </trkpt>
      <trkpt lat="42.88048" lon="-0.02608">
        <ele>943</ele>
        <time>2015-08-11T11:27:58Z</time>
      </trkpt>
      <trkpt lat="42.88056" lon="-0.02601">
        <ele>941</ele>
        <time>2015-08-11T11:30:24Z</time>
      </trkpt>
      <trkpt lat="42.88059" lon="-0.02588">
        <ele>940</ele>
        <time>2015-08-11T11:30:29Z</time>
      </trkpt>
      <trkpt lat="42.88057" lon="-0.02574">
        <ele>929</ele>
        <time>2015-08-11T11:30:35Z</time>
      </trkpt>
      <trkpt lat="42.88057" lon="-0.02562">
        <ele>928</ele>
        <time>2015-08-11T11:30:44Z</time>
      </trkpt>
      <trkpt lat="42.8806" lon="-0.02549">
        <ele>927</ele>
        <time>2015-08-11T11:30:53Z</time>
      </trkpt>
      <trkpt lat="42.8806" lon="-0.02536">
        <ele>925</ele>
        <time>2015-08-11T11:31:04Z</time>
      </trkpt>
      <trkpt lat="42.88064" lon="-0.02525">
        <ele>924</ele>
        <time>2015-08-11T11:31:11Z</time>
      </trkpt>
      <trkpt lat="42.88067" lon="-0.02512">
        <ele>922</ele>
        <time>2015-08-11T11:31:18Z</time>
      </trkpt>
      <trkpt lat="42.88073" lon="-0.02502">
        <ele>920</ele>
        <time>2015-08-11T11:31:29Z</time>
      </trkpt>
      <trkpt lat="42.88082" lon="-0.02496">
        <ele>915</ele>
        <time>2015-08-11T11:31:45Z</time>
      </trkpt>
      <trkpt lat="42.88091" lon="-0.02492">
        <ele>911</ele>
        <time>2015-08-11T11:31:54Z</time>
      </trkpt>
      <trkpt lat="42.881" lon="-0.02489">
        <ele>908</ele>
        <time>2015-08-11T11:32:08Z</time>
      </trkpt>
      <trkpt lat="42.88109" lon="-0.02487">
        <ele>906</ele>
        <time>2015-08-11T11:32:18Z</time>
      </trkpt>
      <trkpt lat="42.88118" lon="-0.0248">
        <ele>904</ele>
        <time>2015-08-11T11:32:28Z</time>
      </trkpt>
      <trkpt lat="42.88127" lon="-0.02478">
        <ele>904</ele>
        <time>2015-08-11T11:32:45Z</time>
      </trkpt>
      <trkpt lat="42.88136" lon="-0.02477">
        <ele>903</ele>
        <time>2015-08-11T11:32:59Z</time>
      </trkpt>
      <trkpt lat="42.88143" lon="-0.02469">
        <ele>902</ele>
        <time>2015-08-11T11:33:10Z</time>
      </trkpt>
      <trkpt lat="42.88153" lon="-0.02469">
        <ele>902</ele>
        <time>2015-08-11T11:33:33Z</time>
      </trkpt>
      <trkpt lat="42.88162" lon="-0.02472">
        <ele>903</ele>
        <time>2015-08-11T11:33:40Z</time>
      </trkpt>
      <trkpt lat="42.88172" lon="-0.0247">
        <ele>892</ele>
        <time>2015-08-11T11:33:49Z</time>
      </trkpt>
      <trkpt lat="42.88181" lon="-0.02466">
        <ele>889</ele>
        <time>2015-08-11T11:33:57Z</time>
      </trkpt>
      <trkpt lat="42.8819" lon="-0.02461">
        <ele>887</ele>
        <time>2015-08-11T11:34:06Z</time>
      </trkpt>
      <trkpt lat="42.882" lon="-0.02459">
        <ele>885</ele>
        <time>2015-08-11T11:34:14Z</time>
      </trkpt>
      <trkpt lat="42.88209" lon="-0.02458">
        <ele>883</ele>
        <time>2015-08-11T11:34:20Z</time>
      </trkpt>
      <trkpt lat="42.88218" lon="-0.02462">
        <ele>882</ele>
        <time>2015-08-11T11:34:26Z</time>
      </trkpt>
      <trkpt lat="42.88228" lon="-0.02459">
        <ele>881</ele>
        <time>2015-08-11T11:34:35Z</time>
      </trkpt>
      <trkpt lat="42.88237" lon="-0.02462">
        <ele>880</ele>
        <time>2015-08-11T11:34:58Z</time>
      </trkpt>
      <trkpt lat="42.88246" lon="-0.02467">
        <ele>880</ele>
        <time>2015-08-11T11:35:17Z</time>
      </trkpt>
      <trkpt lat="42.88253" lon="-0.02474">
        <ele>869</ele>
        <time>2015-08-11T11:35:26Z</time>
      </trkpt>
      <trkpt lat="42.88261" lon="-0.0248">
        <ele>870</ele>
        <time>2015-08-11T11:35:34Z</time>
      </trkpt>
      <trkpt lat="42.88269" lon="-0.02489">
        <ele>871</ele>
        <time>2015-08-11T11:35:42Z</time>
      </trkpt>
      <trkpt lat="42.88277" lon="-0.02498">
        <ele>869</ele>
        <time>2015-08-11T11:35:51Z</time>
      </trkpt>
      <trkpt lat="42.88286" lon="-0.02502">
        <ele>882</ele>
        <time>2015-08-11T11:35:59Z</time>
      </trkpt>
      <trkpt lat="42.88296" lon="-0.02504">
        <ele>880</ele>
        <time>2015-08-11T11:36:07Z</time>
      </trkpt>
      <trkpt lat="42.88305" lon="-0.02499">
        <ele>863</ele>
        <time>2015-08-11T11:36:17Z</time>
      </trkpt>
      <trkpt lat="42.88312" lon="-0.02491">
        <ele>862</ele>
        <time>2015-08-11T11:36:23Z</time>
      </trkpt>
      <trkpt lat="42.88321" lon="-0.0249">
        <ele>861</ele>
        <time>2015-08-11T11:36:32Z</time>
      </trkpt>
      <trkpt lat="42.8833" lon="-0.02484">
        <ele>861</ele>
        <time>2015-08-11T11:36:40Z</time>
      </trkpt>
      <trkpt lat="42.88334" lon="-0.02473">
        <ele>851</ele>
        <time>2015-08-11T11:36:49Z</time>
      </trkpt>
      <trkpt lat="42.88337" lon="-0.02462">
        <ele>849</ele>
        <time>2015-08-11T11:36:59Z</time>
      </trkpt>
      <trkpt lat="42.88343" lon="-0.02452">
        <ele>848</ele>
        <time>2015-08-11T11:37:10Z</time>
      </trkpt>
      <trkpt lat="42.88348" lon="-0.02441">
        <ele>847</ele>
        <time>2015-08-11T11:37:16Z</time>
      </trkpt>
      <trkpt lat="42.88357" lon="-0.02435">
        <ele>846</ele>
        <time>2015-08-11T11:37:24Z</time>
      </trkpt>
      <trkpt lat="42.88366" lon="-0.02431">
        <ele>846</ele>
        <time>2015-08-11T11:37:32Z</time>
      </trkpt>
      <trkpt lat="42.88375" lon="-0.02428">
        <ele>845</ele>
        <time>2015-08-11T11:38:07Z</time>
      </trkpt>
      <trkpt lat="42.88383" lon="-0.0242">
        <ele>844</ele>
        <time>2015-08-11T11:38:14Z</time>
      </trkpt>
      <trkpt lat="42.88389" lon="-0.0241">
        <ele>836</ele>
        <time>2015-08-11T11:38:23Z</time>
      </trkpt>
      <trkpt lat="42.88394" lon="-0.02399">
        <ele>835</ele>
        <time>2015-08-11T11:38:32Z</time>
      </trkpt>
      <trkpt lat="42.88403" lon="-0.02398">
        <ele>835</ele>
        <time>2015-08-11T11:38:39Z</time>
      </trkpt>
      <trkpt lat="42.88411" lon="-0.02405">
        <ele>836</ele>
        <time>2015-08-11T11:38:46Z</time>
      </trkpt>
      <trkpt lat="42.88417" lon="-0.02415">
        <ele>836</ele>
        <time>2015-08-11T11:38:54Z</time>
      </trkpt>
      <trkpt lat="42.8842" lon="-0.02428">
        <ele>836</ele>
        <time>2015-08-11T11:39:02Z</time>
      </trkpt>
      <trkpt lat="42.88422" lon="-0.02441">
        <ele>835</ele>
        <time>2015-08-11T11:39:09Z</time>
      </trkpt>
      <trkpt lat="42.88426" lon="-0.02453">
        <ele>835</ele>
        <time>2015-08-11T11:39:17Z</time>
      </trkpt>
      <trkpt lat="42.88435" lon="-0.02455">
        <ele>835</ele>
        <time>2015-08-11T11:39:23Z</time>
      </trkpt>
      <trkpt lat="42.88444" lon="-0.02459">
        <ele>834</ele>
        <time>2015-08-11T11:39:30Z</time>
      </trkpt>
      <trkpt lat="42.88454" lon="-0.02463">
        <ele>834</ele>
        <time>2015-08-11T11:39:37Z</time>
      </trkpt>
      <trkpt lat="42.88463" lon="-0.02466">
        <ele>833</ele>
        <time>2015-08-11T11:39:44Z</time>
      </trkpt>
      <trkpt lat="42.88473" lon="-0.02463">
        <ele>833</ele>
        <time>2015-08-11T11:39:55Z</time>
      </trkpt>
      <trkpt lat="42.88481" lon="-0.02455">
        <ele>832</ele>
        <time>2015-08-11T11:40:03Z</time>
      </trkpt>
      <trkpt lat="42.8849" lon="-0.02449">
        <ele>830</ele>
        <time>2015-08-11T11:40:10Z</time>
      </trkpt>
      <trkpt lat="42.88496" lon="-0.02437">
        <ele>828</ele>
        <time>2015-08-11T11:40:16Z</time>
      </trkpt>
      <trkpt lat="42.88499" lon="-0.02424">
        <ele>825</ele>
        <time>2015-08-11T11:40:23Z</time>
      </trkpt>
      <trkpt lat="42.88502" lon="-0.02412">
        <ele>820</ele>
        <time>2015-08-11T11:40:33Z</time>
      </trkpt>
      <trkpt lat="42.88505" lon="-0.024">
        <ele>818</ele>
        <time>2015-08-11T11:40:40Z</time>
      </trkpt>
      <trkpt lat="42.88511" lon="-0.02391">
        <ele>816</ele>
        <time>2015-08-11T11:40:46Z</time>
      </trkpt>
      <trkpt lat="42.88516" lon="-0.0238">
        <ele>815</ele>
        <time>2015-08-11T11:40:50Z</time>
      </trkpt>
      <trkpt lat="42.88519" lon="-0.02368">
        <ele>815</ele>
        <time>2015-08-11T11:40:55Z</time>
      </trkpt>
      <trkpt lat="42.88527" lon="-0.02359">
        <ele>814</ele>
        <time>2015-08-11T11:41:04Z</time>
      </trkpt>
      <trkpt lat="42.88536" lon="-0.02355">
        <ele>813</ele>
        <time>2015-08-11T11:41:10Z</time>
      </trkpt>
      <trkpt lat="42.88545" lon="-0.02354">
        <ele>812</ele>
        <time>2015-08-11T11:41:18Z</time>
      </trkpt>
      <trkpt lat="42.88555" lon="-0.0235">
        <ele>811</ele>
        <time>2015-08-11T11:41:24Z</time>
      </trkpt>
      <trkpt lat="42.88562" lon="-0.02341">
        <ele>810</ele>
        <time>2015-08-11T11:41:32Z</time>
      </trkpt>
      <trkpt lat="42.88568" lon="-0.0233">
        <ele>804</ele>
        <time>2015-08-11T11:41:40Z</time>
      </trkpt>
      <trkpt lat="42.88573" lon="-0.0232">
        <ele>804</ele>
        <time>2015-08-11T11:41:46Z</time>
      </trkpt>
      <trkpt lat="42.88582" lon="-0.02314">
        <ele>804</ele>
        <time>2015-08-11T11:41:53Z</time>
      </trkpt>
      <trkpt lat="42.88592" lon="-0.0231">
        <ele>800</ele>
        <time>2015-08-11T11:42:00Z</time>
      </trkpt>
      <trkpt lat="42.88601" lon="-0.02308">
        <ele>799</ele>
        <time>2015-08-11T11:42:08Z</time>
      </trkpt>
      <trkpt lat="42.88611" lon="-0.02304">
        <ele>799</ele>
        <time>2015-08-11T11:42:16Z</time>
      </trkpt>
      <trkpt lat="42.8862" lon="-0.023">
        <ele>798</ele>
        <time>2015-08-11T11:42:24Z</time>
      </trkpt>
      <trkpt lat="42.88628" lon="-0.02295">
        <ele>798</ele>
        <time>2015-08-11T11:42:32Z</time>
      </trkpt>
      <trkpt lat="42.88636" lon="-0.02288">
        <ele>797</ele>
        <time>2015-08-11T11:42:42Z</time>
      </trkpt>
      <trkpt lat="42.88644" lon="-0.0228">
        <ele>796</ele>
        <time>2015-08-11T11:42:49Z</time>
      </trkpt>
      <trkpt lat="42.88652" lon="-0.02273">
        <ele>794</ele>
        <time>2015-08-11T11:42:57Z</time>
      </trkpt>
      <trkpt lat="42.88658" lon="-0.02264">
        <ele>792</ele>
        <time>2015-08-11T11:43:06Z</time>
      </trkpt>
      <trkpt lat="42.88662" lon="-0.02253">
        <ele>789</ele>
        <time>2015-08-11T11:43:15Z</time>
      </trkpt>
      <trkpt lat="42.8867" lon="-0.02248">
        <ele>785</ele>
        <time>2015-08-11T11:43:33Z</time>
      </trkpt>
      <trkpt lat="42.88678" lon="-0.0224">
        <ele>781</ele>
        <time>2015-08-11T11:43:53Z</time>
      </trkpt>
      <trkpt lat="42.88681" lon="-0.02227">
        <ele>778</ele>
        <time>2015-08-11T11:43:59Z</time>
      </trkpt>
      <trkpt lat="42.88679" lon="-0.02214">
        <ele>777</ele>
        <time>2015-08-11T11:44:08Z</time>
      </trkpt>
      <trkpt lat="42.88675" lon="-0.02202">
        <ele>777</ele>
        <time>2015-08-11T11:44:21Z</time>
      </trkpt>
      <trkpt lat="42.88671" lon="-0.02191">
        <ele>777</ele>
        <time>2015-08-11T11:44:31Z</time>
      </trkpt>
      <trkpt lat="42.88668" lon="-0.02179">
        <ele>778</ele>
        <time>2015-08-11T11:44:43Z</time>
      </trkpt>
      <trkpt lat="42.88666" lon="-0.02167">
        <ele>780</ele>
        <time>2015-08-11T11:44:53Z</time>
      </trkpt>
      <trkpt lat="42.88663" lon="-0.02155">
        <ele>780</ele>
        <time>2015-08-11T11:45:04Z</time>
      </trkpt>
      <trkpt lat="42.88659" lon="-0.02142">
        <ele>780</ele>
        <time>2015-08-11T11:45:14Z</time>
      </trkpt>
      <trkpt lat="42.88656" lon="-0.0213">
        <ele>779</ele>
        <time>2015-08-11T11:45:20Z</time>
      </trkpt>
      <trkpt lat="42.88658" lon="-0.02117">
        <ele>778</ele>
        <time>2015-08-11T11:45:30Z</time>
      </trkpt>
      <trkpt lat="42.8866" lon="-0.02103">
        <ele>776</ele>
        <time>2015-08-11T11:45:42Z</time>
      </trkpt>
      <trkpt lat="42.88665" lon="-0.02092">
        <ele>772</ele>
        <time>2015-08-11T11:45:45Z</time>
      </trkpt>
      <trkpt lat="42.88665" lon="-0.02079">
        <ele>769</ele>
        <time>2015-08-11T13:02:11Z</time>
      </trkpt>
      <trkpt lat="42.88674" lon="-0.02073">
        <ele>763</ele>
        <time>2015-08-11T13:02:28Z</time>
      </trkpt>
      <trkpt lat="42.88681" lon="-0.02064">
        <ele>760</ele>
        <time>2015-08-11T13:02:47Z</time>
      </trkpt>
      <trkpt lat="42.88683" lon="-0.02066">
        <ele>760</ele>
        <time>2015-08-11T13:02:59Z</time>
      </trkpt>
    </trkseg>
  </trk>
</gpx>